<?xml version="1.0" encoding="UTF-8" standalone="no" ?>
<gpx xmlns="http://www.topografix.com/GPX/1/1" xmlns:xsi="http://www.w3.org/2001/XMLSchema-instance" xsi:schemaLocation="http://www.topografix.com/GPX/1/1 http://www.topografix.com/GPX/1/1/gpx.xsd" version="1.1" creator="VisuGPX - https://www.visugpx.com">
  <metadata>
    <name>HANTAYO-LACAPELLE</name>
    <desc><![CDATA[PROJET]]></desc>
  </metadata>
  <trk>
    <name><![CDATA[HANTAYO-LACAPELLE_2]]></name>
    <trkseg>
      <trkpt lat="44.47802" lon="1.05458">
        <ele>87</ele>
        <time>2014-10-12T07:06:08Z</time>
      </trkpt>
      <trkpt lat="44.47803" lon="1.05457">
        <ele>88</ele>
        <time>2014-10-12T07:06:09Z</time>
      </trkpt>
      <trkpt lat="44.47811" lon="1.0545">
        <ele>88</ele>
        <time>2014-10-12T07:06:15Z</time>
      </trkpt>
      <trkpt lat="44.4782" lon="1.05445">
        <ele>88</ele>
        <time>2014-10-12T07:06:20Z</time>
      </trkpt>
      <trkpt lat="44.47825" lon="1.05442">
        <ele>88</ele>
        <time>2014-10-12T07:06:25Z</time>
      </trkpt>
      <trkpt lat="44.47826" lon="1.05441">
        <ele>88</ele>
        <time>2014-10-12T07:06:26Z</time>
      </trkpt>
      <trkpt lat="44.47837" lon="1.05431">
        <ele>86</ele>
        <time>2014-10-12T07:06:37Z</time>
      </trkpt>
      <trkpt lat="44.47841" lon="1.05429">
        <ele>85</ele>
        <time>2014-10-12T07:06:42Z</time>
      </trkpt>
      <trkpt lat="44.47842" lon="1.05428">
        <ele>85</ele>
        <time>2014-10-12T07:06:43Z</time>
      </trkpt>
      <trkpt lat="44.47844" lon="1.05425">
        <ele>85</ele>
        <time>2014-10-12T07:06:45Z</time>
      </trkpt>
      <trkpt lat="44.47848" lon="1.05421">
        <ele>84</ele>
        <time>2014-10-12T07:06:49Z</time>
      </trkpt>
      <trkpt lat="44.47851" lon="1.05419">
        <ele>84</ele>
        <time>2014-10-12T07:06:51Z</time>
      </trkpt>
      <trkpt lat="44.47853" lon="1.05417">
        <ele>84</ele>
        <time>2014-10-12T07:06:52Z</time>
      </trkpt>
      <trkpt lat="44.47854" lon="1.05415">
        <ele>84</ele>
        <time>2014-10-12T07:06:53Z</time>
      </trkpt>
      <trkpt lat="44.47855" lon="1.05414">
        <ele>84</ele>
        <time>2014-10-12T07:06:54Z</time>
      </trkpt>
      <trkpt lat="44.47857" lon="1.05412">
        <ele>84</ele>
        <time>2014-10-12T07:06:55Z</time>
      </trkpt>
      <trkpt lat="44.47858" lon="1.05411">
        <ele>84</ele>
        <time>2014-10-12T07:06:56Z</time>
      </trkpt>
      <trkpt lat="44.47859" lon="1.0541">
        <ele>84</ele>
        <time>2014-10-12T07:06:57Z</time>
      </trkpt>
      <trkpt lat="44.47861" lon="1.05409">
        <ele>84</ele>
        <time>2014-10-12T07:06:58Z</time>
      </trkpt>
      <trkpt lat="44.47862" lon="1.05408">
        <ele>83</ele>
        <time>2014-10-12T07:06:59Z</time>
      </trkpt>
      <trkpt lat="44.47864" lon="1.05407">
        <ele>83</ele>
        <time>2014-10-12T07:07:00Z</time>
      </trkpt>
      <trkpt lat="44.47865" lon="1.05406">
        <ele>83</ele>
        <time>2014-10-12T07:07:01Z</time>
      </trkpt>
      <trkpt lat="44.47866" lon="1.05405">
        <ele>83</ele>
        <time>2014-10-12T07:07:02Z</time>
      </trkpt>
      <trkpt lat="44.47869" lon="1.05403">
        <ele>83</ele>
        <time>2014-10-12T07:07:04Z</time>
      </trkpt>
      <trkpt lat="44.47871" lon="1.05402">
        <ele>83</ele>
        <time>2014-10-12T07:07:05Z</time>
      </trkpt>
      <trkpt lat="44.47872" lon="1.05401">
        <ele>83</ele>
        <time>2014-10-12T07:07:06Z</time>
      </trkpt>
      <trkpt lat="44.47874" lon="1.054">
        <ele>83</ele>
        <time>2014-10-12T07:07:07Z</time>
      </trkpt>
      <trkpt lat="44.47875" lon="1.05399">
        <ele>83</ele>
        <time>2014-10-12T07:07:08Z</time>
      </trkpt>
      <trkpt lat="44.47883" lon="1.05394">
        <ele>82</ele>
        <time>2014-10-12T07:07:13Z</time>
      </trkpt>
      <trkpt lat="44.47888" lon="1.05391">
        <ele>82</ele>
        <time>2014-10-12T07:07:17Z</time>
      </trkpt>
      <trkpt lat="44.47889" lon="1.0539">
        <ele>82</ele>
        <time>2014-10-12T07:07:18Z</time>
      </trkpt>
      <trkpt lat="44.47891" lon="1.05389">
        <ele>81</ele>
        <time>2014-10-12T07:07:19Z</time>
      </trkpt>
      <trkpt lat="44.47906" lon="1.05383">
        <ele>81</ele>
        <time>2014-10-12T07:07:31Z</time>
      </trkpt>
      <trkpt lat="44.47907" lon="1.05383">
        <ele>81</ele>
        <time>2014-10-12T07:07:32Z</time>
      </trkpt>
      <trkpt lat="44.47908" lon="1.05382">
        <ele>80</ele>
        <time>2014-10-12T07:07:33Z</time>
      </trkpt>
      <trkpt lat="44.47915" lon="1.05376">
        <ele>80</ele>
        <time>2014-10-12T07:07:42Z</time>
      </trkpt>
      <trkpt lat="44.4792" lon="1.05373">
        <ele>79</ele>
        <time>2014-10-12T07:07:52Z</time>
      </trkpt>
      <trkpt lat="44.47921" lon="1.05371">
        <ele>79</ele>
        <time>2014-10-12T07:07:56Z</time>
      </trkpt>
      <trkpt lat="44.47922" lon="1.05368">
        <ele>78</ele>
        <time>2014-10-12T07:08:01Z</time>
      </trkpt>
      <trkpt lat="44.47923" lon="1.05367">
        <ele>78</ele>
        <time>2014-10-12T07:08:02Z</time>
      </trkpt>
      <trkpt lat="44.4793" lon="1.05363">
        <ele>78</ele>
        <time>2014-10-12T07:08:09Z</time>
      </trkpt>
      <trkpt lat="44.47935" lon="1.05351">
        <ele>78</ele>
        <time>2014-10-12T07:08:19Z</time>
      </trkpt>
      <trkpt lat="44.47942" lon="1.05346">
        <ele>78</ele>
        <time>2014-10-12T07:08:25Z</time>
      </trkpt>
      <trkpt lat="44.47943" lon="1.05344">
        <ele>78</ele>
        <time>2014-10-12T07:08:26Z</time>
      </trkpt>
      <trkpt lat="44.4795" lon="1.05336">
        <ele>77</ele>
        <time>2014-10-12T07:08:34Z</time>
      </trkpt>
      <trkpt lat="44.47965" lon="1.0532">
        <ele>76</ele>
        <time>2014-10-12T07:08:45Z</time>
      </trkpt>
      <trkpt lat="44.47978" lon="1.05312">
        <ele>76</ele>
        <time>2014-10-12T07:08:54Z</time>
      </trkpt>
      <trkpt lat="44.47981" lon="1.05309">
        <ele>76</ele>
        <time>2014-10-12T07:08:57Z</time>
      </trkpt>
      <trkpt lat="44.47991" lon="1.05303">
        <ele>75</ele>
        <time>2014-10-12T07:09:03Z</time>
      </trkpt>
      <trkpt lat="44.48007" lon="1.05308">
        <ele>75</ele>
        <time>2014-10-12T07:09:10Z</time>
      </trkpt>
      <trkpt lat="44.48008" lon="1.0531">
        <ele>75</ele>
        <time>2014-10-12T07:09:11Z</time>
      </trkpt>
      <trkpt lat="44.48016" lon="1.05314">
        <ele>75</ele>
        <time>2014-10-12T07:09:17Z</time>
      </trkpt>
      <trkpt lat="44.48032" lon="1.0532">
        <ele>76</ele>
        <time>2014-10-12T07:09:30Z</time>
      </trkpt>
      <trkpt lat="44.48033" lon="1.05322">
        <ele>77</ele>
        <time>2014-10-12T07:09:32Z</time>
      </trkpt>
      <trkpt lat="44.48035" lon="1.05324">
        <ele>77</ele>
        <time>2014-10-12T07:09:33Z</time>
      </trkpt>
      <trkpt lat="44.48052" lon="1.05332">
        <ele>78</ele>
        <time>2014-10-12T07:09:42Z</time>
      </trkpt>
      <trkpt lat="44.48073" lon="1.05345">
        <ele>79</ele>
        <time>2014-10-12T07:09:51Z</time>
      </trkpt>
      <trkpt lat="44.48079" lon="1.05352">
        <ele>79</ele>
        <time>2014-10-12T07:09:57Z</time>
      </trkpt>
      <trkpt lat="44.4808" lon="1.05352">
        <ele>79</ele>
        <time>2014-10-12T07:09:58Z</time>
      </trkpt>
      <trkpt lat="44.4809" lon="1.0536">
        <ele>80</ele>
        <time>2014-10-12T07:10:10Z</time>
      </trkpt>
      <trkpt lat="44.48091" lon="1.05362">
        <ele>80</ele>
        <time>2014-10-12T07:10:12Z</time>
      </trkpt>
      <trkpt lat="44.481" lon="1.05372">
        <ele>80</ele>
        <time>2014-10-12T07:10:21Z</time>
      </trkpt>
      <trkpt lat="44.48106" lon="1.05376">
        <ele>80</ele>
        <time>2014-10-12T07:10:25Z</time>
      </trkpt>
      <trkpt lat="44.48107" lon="1.05377">
        <ele>80</ele>
        <time>2014-10-12T07:10:26Z</time>
      </trkpt>
      <trkpt lat="44.48122" lon="1.05389">
        <ele>79</ele>
        <time>2014-10-12T07:10:40Z</time>
      </trkpt>
      <trkpt lat="44.48136" lon="1.05397">
        <ele>79</ele>
        <time>2014-10-12T07:10:49Z</time>
      </trkpt>
      <trkpt lat="44.48138" lon="1.05397">
        <ele>79</ele>
        <time>2014-10-12T07:10:50Z</time>
      </trkpt>
      <trkpt lat="44.4815" lon="1.05403">
        <ele>79</ele>
        <time>2014-10-12T07:10:59Z</time>
      </trkpt>
      <trkpt lat="44.48167" lon="1.05412">
        <ele>78</ele>
        <time>2014-10-12T07:11:10Z</time>
      </trkpt>
      <trkpt lat="44.48181" lon="1.05421">
        <ele>78</ele>
        <time>2014-10-12T07:11:22Z</time>
      </trkpt>
      <trkpt lat="44.48198" lon="1.05431">
        <ele>78</ele>
        <time>2014-10-12T07:11:33Z</time>
      </trkpt>
      <trkpt lat="44.48215" lon="1.05443">
        <ele>77</ele>
        <time>2014-10-12T07:11:45Z</time>
      </trkpt>
      <trkpt lat="44.48217" lon="1.05444">
        <ele>77</ele>
        <time>2014-10-12T07:11:46Z</time>
      </trkpt>
      <trkpt lat="44.48219" lon="1.05445">
        <ele>77</ele>
        <time>2014-10-12T07:11:47Z</time>
      </trkpt>
      <trkpt lat="44.48221" lon="1.05447">
        <ele>77</ele>
        <time>2014-10-12T07:11:49Z</time>
      </trkpt>
      <trkpt lat="44.48222" lon="1.05448">
        <ele>77</ele>
        <time>2014-10-12T07:11:50Z</time>
      </trkpt>
      <trkpt lat="44.48224" lon="1.05449">
        <ele>77</ele>
        <time>2014-10-12T07:11:51Z</time>
      </trkpt>
      <trkpt lat="44.48225" lon="1.0545">
        <ele>77</ele>
        <time>2014-10-12T07:11:52Z</time>
      </trkpt>
      <trkpt lat="44.48227" lon="1.05451">
        <ele>77</ele>
        <time>2014-10-12T07:11:53Z</time>
      </trkpt>
      <trkpt lat="44.48228" lon="1.05452">
        <ele>77</ele>
        <time>2014-10-12T07:11:54Z</time>
      </trkpt>
      <trkpt lat="44.4823" lon="1.05454">
        <ele>77</ele>
        <time>2014-10-12T07:11:55Z</time>
      </trkpt>
      <trkpt lat="44.48231" lon="1.05455">
        <ele>77</ele>
        <time>2014-10-12T07:11:56Z</time>
      </trkpt>
      <trkpt lat="44.48242" lon="1.05463">
        <ele>77</ele>
        <time>2014-10-12T07:12:04Z</time>
      </trkpt>
      <trkpt lat="44.48243" lon="1.05464">
        <ele>77</ele>
        <time>2014-10-12T07:12:05Z</time>
      </trkpt>
      <trkpt lat="44.48245" lon="1.05465">
        <ele>77</ele>
        <time>2014-10-12T07:12:06Z</time>
      </trkpt>
      <trkpt lat="44.4826" lon="1.05475">
        <ele>77</ele>
        <time>2014-10-12T07:12:19Z</time>
      </trkpt>
      <trkpt lat="44.48263" lon="1.05477">
        <ele>77</ele>
        <time>2014-10-12T07:12:21Z</time>
      </trkpt>
      <trkpt lat="44.48265" lon="1.05477">
        <ele>77</ele>
        <time>2014-10-12T07:12:22Z</time>
      </trkpt>
      <trkpt lat="44.48281" lon="1.05486">
        <ele>77</ele>
        <time>2014-10-12T07:12:35Z</time>
      </trkpt>
      <trkpt lat="44.48296" lon="1.05494">
        <ele>77</ele>
        <time>2014-10-12T07:12:48Z</time>
      </trkpt>
      <trkpt lat="44.48298" lon="1.05494">
        <ele>77</ele>
        <time>2014-10-12T07:12:49Z</time>
      </trkpt>
      <trkpt lat="44.483" lon="1.05495">
        <ele>77</ele>
        <time>2014-10-12T07:12:50Z</time>
      </trkpt>
      <trkpt lat="44.48305" lon="1.05495">
        <ele>77</ele>
        <time>2014-10-12T07:12:53Z</time>
      </trkpt>
      <trkpt lat="44.48306" lon="1.05496">
        <ele>77</ele>
        <time>2014-10-12T07:12:54Z</time>
      </trkpt>
      <trkpt lat="44.48309" lon="1.05499">
        <ele>77</ele>
        <time>2014-10-12T07:12:57Z</time>
      </trkpt>
      <trkpt lat="44.48311" lon="1.05499">
        <ele>77</ele>
        <time>2014-10-12T07:12:58Z</time>
      </trkpt>
      <trkpt lat="44.48312" lon="1.055">
        <ele>77</ele>
        <time>2014-10-12T07:12:59Z</time>
      </trkpt>
      <trkpt lat="44.48315" lon="1.05501">
        <ele>77</ele>
        <time>2014-10-12T07:13:01Z</time>
      </trkpt>
      <trkpt lat="44.48316" lon="1.05501">
        <ele>77</ele>
        <time>2014-10-12T07:13:02Z</time>
      </trkpt>
      <trkpt lat="44.48318" lon="1.05502">
        <ele>77</ele>
        <time>2014-10-12T07:13:03Z</time>
      </trkpt>
      <trkpt lat="44.48331" lon="1.05508">
        <ele>77</ele>
        <time>2014-10-12T07:13:12Z</time>
      </trkpt>
      <trkpt lat="44.48337" lon="1.05511">
        <ele>77</ele>
        <time>2014-10-12T07:13:16Z</time>
      </trkpt>
      <trkpt lat="44.48338" lon="1.05511">
        <ele>77</ele>
        <time>2014-10-12T07:13:17Z</time>
      </trkpt>
      <trkpt lat="44.48339" lon="1.05512">
        <ele>77</ele>
        <time>2014-10-12T07:13:18Z</time>
      </trkpt>
      <trkpt lat="44.48357" lon="1.05519">
        <ele>76</ele>
        <time>2014-10-12T07:13:31Z</time>
      </trkpt>
      <trkpt lat="44.48359" lon="1.0552">
        <ele>76</ele>
        <time>2014-10-12T07:13:33Z</time>
      </trkpt>
      <trkpt lat="44.4836" lon="1.05521">
        <ele>76</ele>
        <time>2014-10-12T07:13:34Z</time>
      </trkpt>
      <trkpt lat="44.48362" lon="1.05522">
        <ele>76</ele>
        <time>2014-10-12T07:13:35Z</time>
      </trkpt>
      <trkpt lat="44.48364" lon="1.05523">
        <ele>76</ele>
        <time>2014-10-12T07:13:36Z</time>
      </trkpt>
      <trkpt lat="44.48365" lon="1.05523">
        <ele>76</ele>
        <time>2014-10-12T07:13:37Z</time>
      </trkpt>
      <trkpt lat="44.48366" lon="1.05524">
        <ele>76</ele>
        <time>2014-10-12T07:13:38Z</time>
      </trkpt>
      <trkpt lat="44.48368" lon="1.05524">
        <ele>76</ele>
        <time>2014-10-12T07:13:39Z</time>
      </trkpt>
      <trkpt lat="44.48388" lon="1.05534">
        <ele>76</ele>
        <time>2014-10-12T07:13:52Z</time>
      </trkpt>
      <trkpt lat="44.48405" lon="1.05544">
        <ele>76</ele>
        <time>2014-10-12T07:14:05Z</time>
      </trkpt>
      <trkpt lat="44.48423" lon="1.05553">
        <ele>76</ele>
        <time>2014-10-12T07:14:17Z</time>
      </trkpt>
      <trkpt lat="44.48438" lon="1.05561">
        <ele>76</ele>
        <time>2014-10-12T07:14:28Z</time>
      </trkpt>
      <trkpt lat="44.48457" lon="1.05572">
        <ele>76</ele>
        <time>2014-10-12T07:14:42Z</time>
      </trkpt>
      <trkpt lat="44.48462" lon="1.05575">
        <ele>76</ele>
        <time>2014-10-12T07:14:46Z</time>
      </trkpt>
      <trkpt lat="44.48463" lon="1.05576">
        <ele>76</ele>
        <time>2014-10-12T07:14:47Z</time>
      </trkpt>
      <trkpt lat="44.48465" lon="1.05577">
        <ele>76</ele>
        <time>2014-10-12T07:14:48Z</time>
      </trkpt>
      <trkpt lat="44.48467" lon="1.05577">
        <ele>76</ele>
        <time>2014-10-12T07:14:49Z</time>
      </trkpt>
      <trkpt lat="44.48468" lon="1.05578">
        <ele>76</ele>
        <time>2014-10-12T07:14:50Z</time>
      </trkpt>
      <trkpt lat="44.48469" lon="1.05579">
        <ele>76</ele>
        <time>2014-10-12T07:14:51Z</time>
      </trkpt>
      <trkpt lat="44.48486" lon="1.05588">
        <ele>76</ele>
        <time>2014-10-12T07:15:03Z</time>
      </trkpt>
      <trkpt lat="44.48504" lon="1.05594">
        <ele>76</ele>
        <time>2014-10-12T07:15:15Z</time>
      </trkpt>
      <trkpt lat="44.48519" lon="1.05602">
        <ele>77</ele>
        <time>2014-10-12T07:15:27Z</time>
      </trkpt>
      <trkpt lat="44.48535" lon="1.05612">
        <ele>78</ele>
        <time>2014-10-12T07:15:39Z</time>
      </trkpt>
      <trkpt lat="44.4855" lon="1.05622">
        <ele>78</ele>
        <time>2014-10-12T07:15:51Z</time>
      </trkpt>
      <trkpt lat="44.48567" lon="1.05629">
        <ele>78</ele>
        <time>2014-10-12T07:16:03Z</time>
      </trkpt>
      <trkpt lat="44.48586" lon="1.05637">
        <ele>78</ele>
        <time>2014-10-12T07:16:16Z</time>
      </trkpt>
      <trkpt lat="44.48605" lon="1.05643">
        <ele>78</ele>
        <time>2014-10-12T07:16:29Z</time>
      </trkpt>
      <trkpt lat="44.48622" lon="1.0565">
        <ele>76</ele>
        <time>2014-10-12T07:16:41Z</time>
      </trkpt>
      <trkpt lat="44.48623" lon="1.0565">
        <ele>76</ele>
        <time>2014-10-12T07:16:42Z</time>
      </trkpt>
      <trkpt lat="44.48625" lon="1.05651">
        <ele>76</ele>
        <time>2014-10-12T07:16:43Z</time>
      </trkpt>
      <trkpt lat="44.48627" lon="1.05652">
        <ele>76</ele>
        <time>2014-10-12T07:16:45Z</time>
      </trkpt>
      <trkpt lat="44.48628" lon="1.05653">
        <ele>76</ele>
        <time>2014-10-12T07:16:46Z</time>
      </trkpt>
      <trkpt lat="44.48629" lon="1.05654">
        <ele>76</ele>
        <time>2014-10-12T07:16:47Z</time>
      </trkpt>
      <trkpt lat="44.4863" lon="1.05654">
        <ele>76</ele>
        <time>2014-10-12T07:16:48Z</time>
      </trkpt>
      <trkpt lat="44.48631" lon="1.05655">
        <ele>76</ele>
        <time>2014-10-12T07:16:49Z</time>
      </trkpt>
      <trkpt lat="44.48633" lon="1.05655">
        <ele>76</ele>
        <time>2014-10-12T07:16:50Z</time>
      </trkpt>
      <trkpt lat="44.48648" lon="1.05661">
        <ele>76</ele>
        <time>2014-10-12T07:17:01Z</time>
      </trkpt>
      <trkpt lat="44.48649" lon="1.05661">
        <ele>76</ele>
        <time>2014-10-12T07:17:02Z</time>
      </trkpt>
      <trkpt lat="44.48651" lon="1.05661">
        <ele>76</ele>
        <time>2014-10-12T07:17:03Z</time>
      </trkpt>
      <trkpt lat="44.48652" lon="1.05661">
        <ele>76</ele>
        <time>2014-10-12T07:17:04Z</time>
      </trkpt>
      <trkpt lat="44.48653" lon="1.05661">
        <ele>76</ele>
        <time>2014-10-12T07:17:05Z</time>
      </trkpt>
      <trkpt lat="44.48655" lon="1.05662">
        <ele>76</ele>
        <time>2014-10-12T07:17:06Z</time>
      </trkpt>
      <trkpt lat="44.48656" lon="1.05662">
        <ele>76</ele>
        <time>2014-10-12T07:17:07Z</time>
      </trkpt>
      <trkpt lat="44.48658" lon="1.05663">
        <ele>76</ele>
        <time>2014-10-12T07:17:08Z</time>
      </trkpt>
      <trkpt lat="44.48659" lon="1.05663">
        <ele>76</ele>
        <time>2014-10-12T07:17:09Z</time>
      </trkpt>
      <trkpt lat="44.48661" lon="1.05664">
        <ele>76</ele>
        <time>2014-10-12T07:17:10Z</time>
      </trkpt>
      <trkpt lat="44.48662" lon="1.05664">
        <ele>76</ele>
        <time>2014-10-12T07:17:11Z</time>
      </trkpt>
      <trkpt lat="44.48664" lon="1.05664">
        <ele>76</ele>
        <time>2014-10-12T07:17:12Z</time>
      </trkpt>
      <trkpt lat="44.48666" lon="1.05664">
        <ele>76</ele>
        <time>2014-10-12T07:17:13Z</time>
      </trkpt>
      <trkpt lat="44.48667" lon="1.05665">
        <ele>76</ele>
        <time>2014-10-12T07:17:14Z</time>
      </trkpt>
      <trkpt lat="44.48668" lon="1.05666">
        <ele>76</ele>
        <time>2014-10-12T07:17:15Z</time>
      </trkpt>
      <trkpt lat="44.48678" lon="1.05669">
        <ele>77</ele>
        <time>2014-10-12T07:17:22Z</time>
      </trkpt>
      <trkpt lat="44.48693" lon="1.05678">
        <ele>77</ele>
        <time>2014-10-12T07:17:34Z</time>
      </trkpt>
      <trkpt lat="44.48705" lon="1.05682">
        <ele>77</ele>
        <time>2014-10-12T07:17:42Z</time>
      </trkpt>
      <trkpt lat="44.48706" lon="1.05682">
        <ele>77</ele>
        <time>2014-10-12T07:17:43Z</time>
      </trkpt>
      <trkpt lat="44.48707" lon="1.05683">
        <ele>77</ele>
        <time>2014-10-12T07:17:44Z</time>
      </trkpt>
      <trkpt lat="44.48726" lon="1.05689">
        <ele>77</ele>
        <time>2014-10-12T07:17:57Z</time>
      </trkpt>
      <trkpt lat="44.48741" lon="1.05692">
        <ele>77</ele>
        <time>2014-10-12T07:18:07Z</time>
      </trkpt>
      <trkpt lat="44.48753" lon="1.05698">
        <ele>77</ele>
        <time>2014-10-12T07:18:19Z</time>
      </trkpt>
      <trkpt lat="44.48767" lon="1.057">
        <ele>77</ele>
        <time>2014-10-12T07:18:29Z</time>
      </trkpt>
      <trkpt lat="44.48773" lon="1.05702">
        <ele>77</ele>
        <time>2014-10-12T07:18:33Z</time>
      </trkpt>
      <trkpt lat="44.48775" lon="1.05703">
        <ele>77</ele>
        <time>2014-10-12T07:18:34Z</time>
      </trkpt>
      <trkpt lat="44.48776" lon="1.05703">
        <ele>77</ele>
        <time>2014-10-12T07:18:35Z</time>
      </trkpt>
      <trkpt lat="44.48789" lon="1.05706">
        <ele>77</ele>
        <time>2014-10-12T07:18:45Z</time>
      </trkpt>
      <trkpt lat="44.48808" lon="1.0571">
        <ele>77</ele>
        <time>2014-10-12T07:18:58Z</time>
      </trkpt>
      <trkpt lat="44.48811" lon="1.0571">
        <ele>77</ele>
        <time>2014-10-12T07:19:01Z</time>
      </trkpt>
      <trkpt lat="44.48813" lon="1.0571">
        <ele>77</ele>
        <time>2014-10-12T07:19:02Z</time>
      </trkpt>
      <trkpt lat="44.48819" lon="1.05711">
        <ele>77</ele>
        <time>2014-10-12T07:19:07Z</time>
      </trkpt>
      <trkpt lat="44.48823" lon="1.05712">
        <ele>78</ele>
        <time>2014-10-12T07:19:13Z</time>
      </trkpt>
      <trkpt lat="44.48824" lon="1.05713">
        <ele>78</ele>
        <time>2014-10-12T07:19:14Z</time>
      </trkpt>
      <trkpt lat="44.48828" lon="1.05721">
        <ele>78</ele>
        <time>2014-10-12T07:19:23Z</time>
      </trkpt>
      <trkpt lat="44.48836" lon="1.05736">
        <ele>79</ele>
        <time>2014-10-12T07:19:31Z</time>
      </trkpt>
      <trkpt lat="44.48835" lon="1.05757">
        <ele>79</ele>
        <time>2014-10-12T07:19:41Z</time>
      </trkpt>
      <trkpt lat="44.48833" lon="1.05772">
        <ele>80</ele>
        <time>2014-10-12T07:19:49Z</time>
      </trkpt>
      <trkpt lat="44.4883" lon="1.0579">
        <ele>80</ele>
        <time>2014-10-12T07:20:00Z</time>
      </trkpt>
      <trkpt lat="44.4883" lon="1.05797">
        <ele>80</ele>
        <time>2014-10-12T07:20:04Z</time>
      </trkpt>
      <trkpt lat="44.48829" lon="1.05804">
        <ele>81</ele>
        <time>2014-10-12T07:20:08Z</time>
      </trkpt>
      <trkpt lat="44.48826" lon="1.05808">
        <ele>81</ele>
        <time>2014-10-12T07:20:12Z</time>
      </trkpt>
      <trkpt lat="44.48821" lon="1.05814">
        <ele>82</ele>
        <time>2014-10-12T07:20:20Z</time>
      </trkpt>
      <trkpt lat="44.48807" lon="1.05823">
        <ele>84</ele>
        <time>2014-10-12T07:20:34Z</time>
      </trkpt>
      <trkpt lat="44.48791" lon="1.05829">
        <ele>86</ele>
        <time>2014-10-12T07:20:44Z</time>
      </trkpt>
      <trkpt lat="44.48785" lon="1.05827">
        <ele>86</ele>
        <time>2014-10-12T07:20:48Z</time>
      </trkpt>
      <trkpt lat="44.48782" lon="1.05829">
        <ele>87</ele>
        <time>2014-10-12T07:20:51Z</time>
      </trkpt>
      <trkpt lat="44.48767" lon="1.05831">
        <ele>89</ele>
        <time>2014-10-12T07:21:04Z</time>
      </trkpt>
      <trkpt lat="44.4876" lon="1.05829">
        <ele>90</ele>
        <time>2014-10-12T07:21:10Z</time>
      </trkpt>
      <trkpt lat="44.48755" lon="1.0583">
        <ele>90</ele>
        <time>2014-10-12T07:21:15Z</time>
      </trkpt>
      <trkpt lat="44.48735" lon="1.05823">
        <ele>92</ele>
        <time>2014-10-12T07:21:29Z</time>
      </trkpt>
      <trkpt lat="44.48734" lon="1.05823">
        <ele>92</ele>
        <time>2014-10-12T07:21:30Z</time>
      </trkpt>
      <trkpt lat="44.48716" lon="1.0582">
        <ele>94</ele>
        <time>2014-10-12T07:21:43Z</time>
      </trkpt>
      <trkpt lat="44.48699" lon="1.0582">
        <ele>95</ele>
        <time>2014-10-12T07:21:56Z</time>
      </trkpt>
      <trkpt lat="44.48697" lon="1.05819">
        <ele>96</ele>
        <time>2014-10-12T07:21:58Z</time>
      </trkpt>
      <trkpt lat="44.4869" lon="1.0582">
        <ele>96</ele>
        <time>2014-10-12T07:22:03Z</time>
      </trkpt>
      <trkpt lat="44.48679" lon="1.05824">
        <ele>98</ele>
        <time>2014-10-12T07:22:11Z</time>
      </trkpt>
      <trkpt lat="44.48672" lon="1.05825">
        <ele>99</ele>
        <time>2014-10-12T07:22:16Z</time>
      </trkpt>
      <trkpt lat="44.48668" lon="1.05827">
        <ele>99</ele>
        <time>2014-10-12T07:22:20Z</time>
      </trkpt>
      <trkpt lat="44.48664" lon="1.05829">
        <ele>100</ele>
        <time>2014-10-12T07:22:24Z</time>
      </trkpt>
      <trkpt lat="44.48662" lon="1.0583">
        <ele>100</ele>
        <time>2014-10-12T07:22:25Z</time>
      </trkpt>
      <trkpt lat="44.48651" lon="1.05832">
        <ele>102</ele>
        <time>2014-10-12T07:22:34Z</time>
      </trkpt>
      <trkpt lat="44.48645" lon="1.05835">
        <ele>102</ele>
        <time>2014-10-12T07:22:39Z</time>
      </trkpt>
      <trkpt lat="44.4863" lon="1.05839">
        <ele>104</ele>
        <time>2014-10-12T07:22:52Z</time>
      </trkpt>
      <trkpt lat="44.48629" lon="1.05839">
        <ele>104</ele>
        <time>2014-10-12T07:22:53Z</time>
      </trkpt>
      <trkpt lat="44.48626" lon="1.05851">
        <ele>106</ele>
        <time>2014-10-12T07:23:05Z</time>
      </trkpt>
      <trkpt lat="44.48627" lon="1.05854">
        <ele>108</ele>
        <time>2014-10-12T07:23:08Z</time>
      </trkpt>
      <trkpt lat="44.48636" lon="1.05862">
        <ele>110</ele>
        <time>2014-10-12T07:23:18Z</time>
      </trkpt>
      <trkpt lat="44.48643" lon="1.05868">
        <ele>110</ele>
        <time>2014-10-12T07:23:25Z</time>
      </trkpt>
      <trkpt lat="44.48648" lon="1.05871">
        <ele>110</ele>
        <time>2014-10-12T07:23:29Z</time>
      </trkpt>
      <trkpt lat="44.48661" lon="1.05877">
        <ele>110</ele>
        <time>2014-10-12T07:23:38Z</time>
      </trkpt>
      <trkpt lat="44.48676" lon="1.05881">
        <ele>110</ele>
        <time>2014-10-12T07:23:49Z</time>
      </trkpt>
      <trkpt lat="44.48681" lon="1.05883">
        <ele>111</ele>
        <time>2014-10-12T07:23:53Z</time>
      </trkpt>
      <trkpt lat="44.48684" lon="1.05884">
        <ele>111</ele>
        <time>2014-10-12T07:23:57Z</time>
      </trkpt>
      <trkpt lat="44.48695" lon="1.0589">
        <ele>113</ele>
        <time>2014-10-12T07:24:08Z</time>
      </trkpt>
      <trkpt lat="44.48707" lon="1.05895">
        <ele>114</ele>
        <time>2014-10-12T07:24:16Z</time>
      </trkpt>
      <trkpt lat="44.48712" lon="1.05898">
        <ele>118</ele>
        <time>2014-10-12T07:24:22Z</time>
      </trkpt>
      <trkpt lat="44.48717" lon="1.05904">
        <ele>119</ele>
        <time>2014-10-12T07:24:29Z</time>
      </trkpt>
      <trkpt lat="44.48721" lon="1.05911">
        <ele>119</ele>
        <time>2014-10-12T07:24:34Z</time>
      </trkpt>
      <trkpt lat="44.48725" lon="1.05916">
        <ele>119</ele>
        <time>2014-10-12T07:24:38Z</time>
      </trkpt>
      <trkpt lat="44.48727" lon="1.0593">
        <ele>119</ele>
        <time>2014-10-12T07:24:45Z</time>
      </trkpt>
      <trkpt lat="44.4873" lon="1.05954">
        <ele>119</ele>
        <time>2014-10-12T07:24:56Z</time>
      </trkpt>
      <trkpt lat="44.4873" lon="1.05972">
        <ele>119</ele>
        <time>2014-10-12T07:25:04Z</time>
      </trkpt>
      <trkpt lat="44.4873" lon="1.06">
        <ele>120</ele>
        <time>2014-10-12T07:25:18Z</time>
      </trkpt>
      <trkpt lat="44.48731" lon="1.06012">
        <ele>120</ele>
        <time>2014-10-12T07:25:24Z</time>
      </trkpt>
      <trkpt lat="44.48733" lon="1.06035">
        <ele>121</ele>
        <time>2014-10-12T07:25:36Z</time>
      </trkpt>
      <trkpt lat="44.48733" lon="1.06037">
        <ele>120</ele>
        <time>2014-10-12T07:25:37Z</time>
      </trkpt>
      <trkpt lat="44.48733" lon="1.06045">
        <ele>120</ele>
        <time>2014-10-12T07:25:42Z</time>
      </trkpt>
      <trkpt lat="44.48733" lon="1.06053">
        <ele>120</ele>
        <time>2014-10-12T07:25:46Z</time>
      </trkpt>
      <trkpt lat="44.48735" lon="1.06065">
        <ele>121</ele>
        <time>2014-10-12T07:25:52Z</time>
      </trkpt>
      <trkpt lat="44.48734" lon="1.06093">
        <ele>121</ele>
        <time>2014-10-12T07:26:06Z</time>
      </trkpt>
      <trkpt lat="44.48734" lon="1.06098">
        <ele>121</ele>
        <time>2014-10-12T07:26:08Z</time>
      </trkpt>
      <trkpt lat="44.48732" lon="1.06108">
        <ele>122</ele>
        <time>2014-10-12T07:26:13Z</time>
      </trkpt>
      <trkpt lat="44.48727" lon="1.06122">
        <ele>122</ele>
        <time>2014-10-12T07:26:20Z</time>
      </trkpt>
      <trkpt lat="44.48725" lon="1.06129">
        <ele>123</ele>
        <time>2014-10-12T07:26:24Z</time>
      </trkpt>
      <trkpt lat="44.48718" lon="1.0615">
        <ele>124</ele>
        <time>2014-10-12T07:26:36Z</time>
      </trkpt>
      <trkpt lat="44.48718" lon="1.06171">
        <ele>126</ele>
        <time>2014-10-12T07:26:47Z</time>
      </trkpt>
      <trkpt lat="44.48722" lon="1.06187">
        <ele>127</ele>
        <time>2014-10-12T07:26:58Z</time>
      </trkpt>
      <trkpt lat="44.48727" lon="1.06208">
        <ele>128</ele>
        <time>2014-10-12T07:27:10Z</time>
      </trkpt>
      <trkpt lat="44.48728" lon="1.06211">
        <ele>128</ele>
        <time>2014-10-12T07:27:12Z</time>
      </trkpt>
      <trkpt lat="44.48723" lon="1.06233">
        <ele>130</ele>
        <time>2014-10-12T07:27:24Z</time>
      </trkpt>
      <trkpt lat="44.48715" lon="1.06246">
        <ele>131</ele>
        <time>2014-10-12T07:27:33Z</time>
      </trkpt>
      <trkpt lat="44.48703" lon="1.06263">
        <ele>132</ele>
        <time>2014-10-12T07:27:47Z</time>
      </trkpt>
      <trkpt lat="44.48701" lon="1.06266">
        <ele>133</ele>
        <time>2014-10-12T07:27:49Z</time>
      </trkpt>
      <trkpt lat="44.48698" lon="1.06269">
        <ele>133</ele>
        <time>2014-10-12T07:27:52Z</time>
      </trkpt>
      <trkpt lat="44.48689" lon="1.06282">
        <ele>134</ele>
        <time>2014-10-12T07:28:02Z</time>
      </trkpt>
      <trkpt lat="44.4868" lon="1.06298">
        <ele>135</ele>
        <time>2014-10-12T07:28:13Z</time>
      </trkpt>
      <trkpt lat="44.48665" lon="1.06317">
        <ele>136</ele>
        <time>2014-10-12T07:28:28Z</time>
      </trkpt>
      <trkpt lat="44.4865" lon="1.06338">
        <ele>138</ele>
        <time>2014-10-12T07:28:43Z</time>
      </trkpt>
      <trkpt lat="44.48635" lon="1.06356">
        <ele>138</ele>
        <time>2014-10-12T07:28:56Z</time>
      </trkpt>
      <trkpt lat="44.48624" lon="1.06372">
        <ele>138</ele>
        <time>2014-10-12T07:29:07Z</time>
      </trkpt>
      <trkpt lat="44.4861" lon="1.06394">
        <ele>137</ele>
        <time>2014-10-12T07:29:20Z</time>
      </trkpt>
      <trkpt lat="44.48597" lon="1.06411">
        <ele>136</ele>
        <time>2014-10-12T07:29:32Z</time>
      </trkpt>
      <trkpt lat="44.48584" lon="1.06424">
        <ele>135</ele>
        <time>2014-10-12T07:29:44Z</time>
      </trkpt>
      <trkpt lat="44.4858" lon="1.06424">
        <ele>133</ele>
        <time>2014-10-12T07:29:48Z</time>
      </trkpt>
      <trkpt lat="44.48566" lon="1.06409">
        <ele>132</ele>
        <time>2014-10-12T07:30:01Z</time>
      </trkpt>
      <trkpt lat="44.48564" lon="1.06407">
        <ele>131</ele>
        <time>2014-10-12T07:30:03Z</time>
      </trkpt>
      <trkpt lat="44.48562" lon="1.06404">
        <ele>131</ele>
        <time>2014-10-12T07:30:05Z</time>
      </trkpt>
      <trkpt lat="44.48549" lon="1.06391">
        <ele>130</ele>
        <time>2014-10-12T07:30:19Z</time>
      </trkpt>
      <trkpt lat="44.48533" lon="1.06375">
        <ele>129</ele>
        <time>2014-10-12T07:30:31Z</time>
      </trkpt>
      <trkpt lat="44.48521" lon="1.06362">
        <ele>129</ele>
        <time>2014-10-12T07:30:40Z</time>
      </trkpt>
      <trkpt lat="44.48502" lon="1.06347">
        <ele>129</ele>
        <time>2014-10-12T07:30:56Z</time>
      </trkpt>
      <trkpt lat="44.48488" lon="1.06334">
        <ele>129</ele>
        <time>2014-10-12T07:31:08Z</time>
      </trkpt>
      <trkpt lat="44.48476" lon="1.06322">
        <ele>131</ele>
        <time>2014-10-12T07:31:19Z</time>
      </trkpt>
      <trkpt lat="44.48465" lon="1.06313">
        <ele>131</ele>
        <time>2014-10-12T07:31:28Z</time>
      </trkpt>
      <trkpt lat="44.48456" lon="1.06329">
        <ele>131</ele>
        <time>2014-10-12T07:31:40Z</time>
      </trkpt>
      <trkpt lat="44.48454" lon="1.06337">
        <ele>132</ele>
        <time>2014-10-12T07:31:44Z</time>
      </trkpt>
      <trkpt lat="44.48453" lon="1.0634">
        <ele>132</ele>
        <time>2014-10-12T07:31:46Z</time>
      </trkpt>
      <trkpt lat="44.48444" lon="1.06362">
        <ele>133</ele>
        <time>2014-10-12T07:32:00Z</time>
      </trkpt>
      <trkpt lat="44.48442" lon="1.06365">
        <ele>133</ele>
        <time>2014-10-12T07:32:02Z</time>
      </trkpt>
      <trkpt lat="44.48436" lon="1.06376">
        <ele>133</ele>
        <time>2014-10-12T07:32:09Z</time>
      </trkpt>
      <trkpt lat="44.48417" lon="1.06395">
        <ele>134</ele>
        <time>2014-10-12T07:32:25Z</time>
      </trkpt>
      <trkpt lat="44.48407" lon="1.06406">
        <ele>135</ele>
        <time>2014-10-12T07:32:34Z</time>
      </trkpt>
      <trkpt lat="44.48406" lon="1.06409">
        <ele>135</ele>
        <time>2014-10-12T07:32:36Z</time>
      </trkpt>
      <trkpt lat="44.48401" lon="1.06414">
        <ele>136</ele>
        <time>2014-10-12T07:32:40Z</time>
      </trkpt>
      <trkpt lat="44.48385" lon="1.06436">
        <ele>137</ele>
        <time>2014-10-12T07:32:54Z</time>
      </trkpt>
      <trkpt lat="44.48368" lon="1.06452">
        <ele>137</ele>
        <time>2014-10-12T07:33:08Z</time>
      </trkpt>
      <trkpt lat="44.48354" lon="1.06468">
        <ele>137</ele>
        <time>2014-10-12T07:33:20Z</time>
      </trkpt>
      <trkpt lat="44.4834" lon="1.06484">
        <ele>137</ele>
        <time>2014-10-12T07:33:32Z</time>
      </trkpt>
      <trkpt lat="44.48331" lon="1.06502">
        <ele>137</ele>
        <time>2014-10-12T07:33:43Z</time>
      </trkpt>
      <trkpt lat="44.48327" lon="1.0651">
        <ele>137</ele>
        <time>2014-10-12T07:33:49Z</time>
      </trkpt>
      <trkpt lat="44.48326" lon="1.06518">
        <ele>137</ele>
        <time>2014-10-12T07:33:54Z</time>
      </trkpt>
      <trkpt lat="44.48322" lon="1.06538">
        <ele>137</ele>
        <time>2014-10-12T07:34:04Z</time>
      </trkpt>
      <trkpt lat="44.48321" lon="1.06545">
        <ele>138</ele>
        <time>2014-10-12T07:34:08Z</time>
      </trkpt>
      <trkpt lat="44.48321" lon="1.06549">
        <ele>138</ele>
        <time>2014-10-12T07:34:10Z</time>
      </trkpt>
      <trkpt lat="44.4832" lon="1.06568">
        <ele>138</ele>
        <time>2014-10-12T07:34:20Z</time>
      </trkpt>
      <trkpt lat="44.4832" lon="1.06592">
        <ele>138</ele>
        <time>2014-10-12T07:34:31Z</time>
      </trkpt>
      <trkpt lat="44.4832" lon="1.06614">
        <ele>138</ele>
        <time>2014-10-12T07:34:42Z</time>
      </trkpt>
      <trkpt lat="44.48313" lon="1.06647">
        <ele>138</ele>
        <time>2014-10-12T07:34:56Z</time>
      </trkpt>
      <trkpt lat="44.48299" lon="1.06671">
        <ele>138</ele>
        <time>2014-10-12T07:35:11Z</time>
      </trkpt>
      <trkpt lat="44.48291" lon="1.06696">
        <ele>137</ele>
        <time>2014-10-12T07:35:25Z</time>
      </trkpt>
      <trkpt lat="44.48304" lon="1.06715">
        <ele>136</ele>
        <time>2014-10-12T07:35:41Z</time>
      </trkpt>
      <trkpt lat="44.48315" lon="1.06729">
        <ele>135</ele>
        <time>2014-10-12T07:35:52Z</time>
      </trkpt>
      <trkpt lat="44.48317" lon="1.06743">
        <ele>135</ele>
        <time>2014-10-12T07:35:59Z</time>
      </trkpt>
      <trkpt lat="44.48316" lon="1.0675">
        <ele>135</ele>
        <time>2014-10-12T07:36:03Z</time>
      </trkpt>
      <trkpt lat="44.48303" lon="1.06773">
        <ele>134</ele>
        <time>2014-10-12T07:36:18Z</time>
      </trkpt>
      <trkpt lat="44.48293" lon="1.06791">
        <ele>134</ele>
        <time>2014-10-12T07:36:29Z</time>
      </trkpt>
      <trkpt lat="44.48278" lon="1.06816">
        <ele>132</ele>
        <time>2014-10-12T07:36:45Z</time>
      </trkpt>
      <trkpt lat="44.48266" lon="1.06836">
        <ele>130</ele>
        <time>2014-10-12T07:36:58Z</time>
      </trkpt>
      <trkpt lat="44.48254" lon="1.06857">
        <ele>129</ele>
        <time>2014-10-12T07:37:12Z</time>
      </trkpt>
      <trkpt lat="44.48237" lon="1.06884">
        <ele>128</ele>
        <time>2014-10-12T07:37:29Z</time>
      </trkpt>
      <trkpt lat="44.48236" lon="1.06885">
        <ele>128</ele>
        <time>2014-10-12T07:37:30Z</time>
      </trkpt>
      <trkpt lat="44.48222" lon="1.06882">
        <ele>128</ele>
        <time>2014-10-12T07:37:41Z</time>
      </trkpt>
      <trkpt lat="44.48216" lon="1.06899">
        <ele>127</ele>
        <time>2014-10-12T07:37:51Z</time>
      </trkpt>
      <trkpt lat="44.4821" lon="1.0693">
        <ele>126</ele>
        <time>2014-10-12T07:38:07Z</time>
      </trkpt>
      <trkpt lat="44.48197" lon="1.06953">
        <ele>124</ele>
        <time>2014-10-12T07:38:22Z</time>
      </trkpt>
      <trkpt lat="44.48187" lon="1.06981">
        <ele>123</ele>
        <time>2014-10-12T07:38:38Z</time>
      </trkpt>
      <trkpt lat="44.48181" lon="1.07011">
        <ele>122</ele>
        <time>2014-10-12T07:38:53Z</time>
      </trkpt>
      <trkpt lat="44.48176" lon="1.07038">
        <ele>119</ele>
        <time>2014-10-12T07:39:07Z</time>
      </trkpt>
      <trkpt lat="44.4817" lon="1.07066">
        <ele>118</ele>
        <time>2014-10-12T07:39:21Z</time>
      </trkpt>
      <trkpt lat="44.48166" lon="1.07086">
        <ele>116</ele>
        <time>2014-10-12T07:39:32Z</time>
      </trkpt>
      <trkpt lat="44.48158" lon="1.07109">
        <ele>115</ele>
        <time>2014-10-12T07:39:45Z</time>
      </trkpt>
      <trkpt lat="44.48147" lon="1.07139">
        <ele>113</ele>
        <time>2014-10-12T07:40:00Z</time>
      </trkpt>
      <trkpt lat="44.48138" lon="1.07168">
        <ele>112</ele>
        <time>2014-10-12T07:40:15Z</time>
      </trkpt>
      <trkpt lat="44.48136" lon="1.07171">
        <ele>112</ele>
        <time>2014-10-12T07:40:17Z</time>
      </trkpt>
      <trkpt lat="44.48133" lon="1.07181">
        <ele>111</ele>
        <time>2014-10-12T07:40:23Z</time>
      </trkpt>
      <trkpt lat="44.4813" lon="1.07189">
        <ele>111</ele>
        <time>2014-10-12T07:40:27Z</time>
      </trkpt>
      <trkpt lat="44.48125" lon="1.07204">
        <ele>112</ele>
        <time>2014-10-12T07:40:35Z</time>
      </trkpt>
      <trkpt lat="44.48118" lon="1.07229">
        <ele>111</ele>
        <time>2014-10-12T07:40:48Z</time>
      </trkpt>
      <trkpt lat="44.48125" lon="1.07244">
        <ele>111</ele>
        <time>2014-10-12T07:41:00Z</time>
      </trkpt>
      <trkpt lat="44.48137" lon="1.07263">
        <ele>111</ele>
        <time>2014-10-12T07:41:13Z</time>
      </trkpt>
      <trkpt lat="44.48144" lon="1.07272">
        <ele>111</ele>
        <time>2014-10-12T07:41:20Z</time>
      </trkpt>
      <trkpt lat="44.48142" lon="1.07295">
        <ele>113</ele>
        <time>2014-10-12T07:41:33Z</time>
      </trkpt>
      <trkpt lat="44.4814" lon="1.073">
        <ele>113</ele>
        <time>2014-10-12T07:41:36Z</time>
      </trkpt>
      <trkpt lat="44.4814" lon="1.07303">
        <ele>113</ele>
        <time>2014-10-12T07:41:38Z</time>
      </trkpt>
      <trkpt lat="44.48135" lon="1.07317">
        <ele>114</ele>
        <time>2014-10-12T07:41:46Z</time>
      </trkpt>
      <trkpt lat="44.48126" lon="1.07344">
        <ele>115</ele>
        <time>2014-10-12T07:42:01Z</time>
      </trkpt>
      <trkpt lat="44.48118" lon="1.07369">
        <ele>116</ele>
        <time>2014-10-12T07:42:16Z</time>
      </trkpt>
      <trkpt lat="44.48109" lon="1.07393">
        <ele>116</ele>
        <time>2014-10-12T07:42:31Z</time>
      </trkpt>
      <trkpt lat="44.48102" lon="1.07413">
        <ele>116</ele>
        <time>2014-10-12T07:42:43Z</time>
      </trkpt>
      <trkpt lat="44.481" lon="1.07418">
        <ele>116</ele>
        <time>2014-10-12T07:42:46Z</time>
      </trkpt>
      <trkpt lat="44.48094" lon="1.07436">
        <ele>117</ele>
        <time>2014-10-12T07:42:56Z</time>
      </trkpt>
      <trkpt lat="44.48084" lon="1.07461">
        <ele>118</ele>
        <time>2014-10-12T07:43:10Z</time>
      </trkpt>
      <trkpt lat="44.48076" lon="1.07485">
        <ele>119</ele>
        <time>2014-10-12T07:43:25Z</time>
      </trkpt>
      <trkpt lat="44.48074" lon="1.0749">
        <ele>119</ele>
        <time>2014-10-12T07:43:28Z</time>
      </trkpt>
      <trkpt lat="44.4807" lon="1.07502">
        <ele>119</ele>
        <time>2014-10-12T07:43:35Z</time>
      </trkpt>
      <trkpt lat="44.48067" lon="1.0751">
        <ele>119</ele>
        <time>2014-10-12T07:43:40Z</time>
      </trkpt>
      <trkpt lat="44.48061" lon="1.07527">
        <ele>119</ele>
        <time>2014-10-12T07:43:49Z</time>
      </trkpt>
      <trkpt lat="44.48058" lon="1.07535">
        <ele>120</ele>
        <time>2014-10-12T07:43:54Z</time>
      </trkpt>
      <trkpt lat="44.48048" lon="1.07567">
        <ele>120</ele>
        <time>2014-10-12T07:44:11Z</time>
      </trkpt>
      <trkpt lat="44.48044" lon="1.07578">
        <ele>120</ele>
        <time>2014-10-12T07:44:17Z</time>
      </trkpt>
      <trkpt lat="44.48034" lon="1.07604">
        <ele>121</ele>
        <time>2014-10-12T07:44:33Z</time>
      </trkpt>
      <trkpt lat="44.4803" lon="1.07618">
        <ele>121</ele>
        <time>2014-10-12T07:44:41Z</time>
      </trkpt>
      <trkpt lat="44.48023" lon="1.07638">
        <ele>121</ele>
        <time>2014-10-12T07:44:53Z</time>
      </trkpt>
      <trkpt lat="44.48018" lon="1.0765">
        <ele>121</ele>
        <time>2014-10-12T07:45:00Z</time>
      </trkpt>
      <trkpt lat="44.48014" lon="1.07662">
        <ele>122</ele>
        <time>2014-10-12T07:45:08Z</time>
      </trkpt>
      <trkpt lat="44.48004" lon="1.07688">
        <ele>123</ele>
        <time>2014-10-12T07:45:23Z</time>
      </trkpt>
      <trkpt lat="44.47997" lon="1.07714">
        <ele>123</ele>
        <time>2014-10-12T07:45:38Z</time>
      </trkpt>
      <trkpt lat="44.47988" lon="1.07737">
        <ele>123</ele>
        <time>2014-10-12T07:45:52Z</time>
      </trkpt>
      <trkpt lat="44.47984" lon="1.07747">
        <ele>123</ele>
        <time>2014-10-12T07:45:58Z</time>
      </trkpt>
      <trkpt lat="44.47983" lon="1.07753">
        <ele>123</ele>
        <time>2014-10-12T07:46:01Z</time>
      </trkpt>
      <trkpt lat="44.47988" lon="1.07762">
        <ele>124</ele>
        <time>2014-10-12T07:46:08Z</time>
      </trkpt>
      <trkpt lat="44.48006" lon="1.07777">
        <ele>125</ele>
        <time>2014-10-12T07:46:22Z</time>
      </trkpt>
      <trkpt lat="44.48008" lon="1.07779">
        <ele>125</ele>
        <time>2014-10-12T07:46:24Z</time>
      </trkpt>
      <trkpt lat="44.48029" lon="1.07797">
        <ele>125</ele>
        <time>2014-10-12T07:46:40Z</time>
      </trkpt>
      <trkpt lat="44.48039" lon="1.07818">
        <ele>125</ele>
        <time>2014-10-12T07:46:53Z</time>
      </trkpt>
      <trkpt lat="44.48038" lon="1.07825">
        <ele>125</ele>
        <time>2014-10-12T07:46:57Z</time>
      </trkpt>
      <trkpt lat="44.48032" lon="1.07851">
        <ele>126</ele>
        <time>2014-10-12T07:47:10Z</time>
      </trkpt>
      <trkpt lat="44.48026" lon="1.07874">
        <ele>127</ele>
        <time>2014-10-12T07:47:22Z</time>
      </trkpt>
      <trkpt lat="44.48025" lon="1.0788">
        <ele>127</ele>
        <time>2014-10-12T07:47:25Z</time>
      </trkpt>
      <trkpt lat="44.48021" lon="1.07896">
        <ele>128</ele>
        <time>2014-10-12T07:47:34Z</time>
      </trkpt>
      <trkpt lat="44.48018" lon="1.07906">
        <ele>128</ele>
        <time>2014-10-12T07:47:40Z</time>
      </trkpt>
      <trkpt lat="44.48014" lon="1.07925">
        <ele>128</ele>
        <time>2014-10-12T07:47:51Z</time>
      </trkpt>
      <trkpt lat="44.48009" lon="1.07936">
        <ele>129</ele>
        <time>2014-10-12T07:47:59Z</time>
      </trkpt>
      <trkpt lat="44.48008" lon="1.0794">
        <ele>129</ele>
        <time>2014-10-12T07:48:01Z</time>
      </trkpt>
      <trkpt lat="44.48004" lon="1.07948">
        <ele>130</ele>
        <time>2014-10-12T07:48:09Z</time>
      </trkpt>
      <trkpt lat="44.48005" lon="1.07962">
        <ele>132</ele>
        <time>2014-10-12T07:48:19Z</time>
      </trkpt>
      <trkpt lat="44.4802" lon="1.07981">
        <ele>134</ele>
        <time>2014-10-12T07:48:32Z</time>
      </trkpt>
      <trkpt lat="44.48034" lon="1.07994">
        <ele>136</ele>
        <time>2014-10-12T07:48:45Z</time>
      </trkpt>
      <trkpt lat="44.48046" lon="1.08001">
        <ele>137</ele>
        <time>2014-10-12T07:48:56Z</time>
      </trkpt>
      <trkpt lat="44.48056" lon="1.08007">
        <ele>137</ele>
        <time>2014-10-12T07:49:04Z</time>
      </trkpt>
      <trkpt lat="44.48063" lon="1.08009">
        <ele>138</ele>
        <time>2014-10-12T07:49:09Z</time>
      </trkpt>
      <trkpt lat="44.48068" lon="1.08012">
        <ele>138</ele>
        <time>2014-10-12T07:49:13Z</time>
      </trkpt>
      <trkpt lat="44.48076" lon="1.08015">
        <ele>138</ele>
        <time>2014-10-12T07:49:19Z</time>
      </trkpt>
      <trkpt lat="44.48095" lon="1.08024">
        <ele>138</ele>
        <time>2014-10-12T07:49:34Z</time>
      </trkpt>
      <trkpt lat="44.48112" lon="1.08033">
        <ele>138</ele>
        <time>2014-10-12T07:49:48Z</time>
      </trkpt>
      <trkpt lat="44.4812" lon="1.08037">
        <ele>138</ele>
        <time>2014-10-12T07:49:54Z</time>
      </trkpt>
      <trkpt lat="44.48126" lon="1.08037">
        <ele>138</ele>
        <time>2014-10-12T07:49:58Z</time>
      </trkpt>
      <trkpt lat="44.48139" lon="1.08046">
        <ele>139</ele>
        <time>2014-10-12T07:50:09Z</time>
      </trkpt>
      <trkpt lat="44.48157" lon="1.08059">
        <ele>139</ele>
        <time>2014-10-12T07:50:24Z</time>
      </trkpt>
      <trkpt lat="44.48173" lon="1.08071">
        <ele>140</ele>
        <time>2014-10-12T07:50:36Z</time>
      </trkpt>
      <trkpt lat="44.48186" lon="1.08082">
        <ele>140</ele>
        <time>2014-10-12T07:50:47Z</time>
      </trkpt>
      <trkpt lat="44.48201" lon="1.0809">
        <ele>143.1328125</ele>
      </trkpt>
      <trkpt lat="44.48221" lon="1.0813">
        <ele>137.4140625</ele>
      </trkpt>
      <trkpt lat="44.48161" lon="1.08212">
        <ele>136.234375</ele>
      </trkpt>
      <trkpt lat="44.48352" lon="1.08253">
        <ele>108.55859375</ele>
      </trkpt>
      <trkpt lat="44.48577" lon="1.08445">
        <ele>89.79296875</ele>
      </trkpt>
      <trkpt lat="44.48733" lon="1.0849">
        <ele>89</ele>
      </trkpt>
      <trkpt lat="44.48886" lon="1.08451">
        <ele>87.484375</ele>
      </trkpt>
      <trkpt lat="44.49043" lon="1.08302">
        <ele>86.40234375</ele>
      </trkpt>
      <trkpt lat="44.49135" lon="1.08264">
        <ele>84.515625</ele>
      </trkpt>
      <trkpt lat="44.4925" lon="1.08273">
        <ele>81.70703125</ele>
      </trkpt>
      <trkpt lat="44.49359" lon="1.08279">
        <ele>79</ele>
      </trkpt>
      <trkpt lat="44.49577" lon="1.08249">
        <ele>82.1796875</ele>
      </trkpt>
      <trkpt lat="44.49811" lon="1.08199">
        <ele>85.6171875</ele>
      </trkpt>
      <trkpt lat="44.49918" lon="1.08178">
        <ele>90.65625</ele>
      </trkpt>
      <trkpt lat="44.49898" lon="1.08048">
        <ele>90.83984375</ele>
      </trkpt>
      <trkpt lat="44.50016" lon="1.0746">
        <ele>82</ele>
      </trkpt>
      <trkpt lat="44.49707" lon="1.07455">
        <ele>77.25390625</ele>
      </trkpt>
      <trkpt lat="44.49828" lon="1.07241">
        <ele>75.5546875</ele>
      </trkpt>
      <trkpt lat="44.5001" lon="1.07153">
        <ele>77</ele>
      </trkpt>
      <trkpt lat="44.50265" lon="1.0707">
        <ele>79.4375</ele>
      </trkpt>
      <trkpt lat="44.50525" lon="1.06947">
        <ele>75.7109375</ele>
      </trkpt>
      <trkpt lat="44.50661" lon="1.07039">
        <ele>79.921875</ele>
      </trkpt>
      <trkpt lat="44.50822" lon="1.07112">
        <ele>82</ele>
      </trkpt>
      <trkpt lat="44.5085" lon="1.07316">
        <ele>84</ele>
      </trkpt>
      <trkpt lat="44.50795" lon="1.07458">
        <ele>85.0546875</ele>
      </trkpt>
      <trkpt lat="44.51127" lon="1.07502">
        <ele>88.51171875</ele>
      </trkpt>
      <trkpt lat="44.51166" lon="1.07586">
        <ele>91.32421875</ele>
      </trkpt>
      <trkpt lat="44.51466" lon="1.07691">
        <ele>102.05078125</ele>
      </trkpt>
      <trkpt lat="44.51519" lon="1.07824">
        <ele>107.84765625</ele>
      </trkpt>
      <trkpt lat="44.51552" lon="1.07999">
        <ele>111.77734375</ele>
      </trkpt>
      <trkpt lat="44.51596" lon="1.08092">
        <ele>116.7578125</ele>
      </trkpt>
      <trkpt lat="44.51655" lon="1.0814">
        <ele>122.63671875</ele>
      </trkpt>
      <trkpt lat="44.51696" lon="1.08116">
        <ele>127.75390625</ele>
      </trkpt>
      <trkpt lat="44.51745" lon="1.07851">
        <ele>155.3671875</ele>
      </trkpt>
      <trkpt lat="44.51787" lon="1.07599">
        <ele>167.2109375</ele>
      </trkpt>
      <trkpt lat="44.51959" lon="1.07494">
        <ele>191.859375</ele>
      </trkpt>
      <trkpt lat="44.52112" lon="1.07389">
        <ele>194.9609375</ele>
      </trkpt>
      <trkpt lat="44.5217" lon="1.06973">
        <ele>211.71484375</ele>
      </trkpt>
      <trkpt lat="44.52239" lon="1.06782">
        <ele>220.16015625</ele>
      </trkpt>
      <trkpt lat="44.52344" lon="1.06687">
        <ele>215.046875</ele>
      </trkpt>
      <trkpt lat="44.52382" lon="1.06542">
        <ele>209.04296875</ele>
      </trkpt>
      <trkpt lat="44.52451" lon="1.06407">
        <ele>208.51171875</ele>
      </trkpt>
      <trkpt lat="44.52505" lon="1.06345">
        <ele>206.96484375</ele>
      </trkpt>
      <trkpt lat="44.52591" lon="1.06308">
        <ele>199.44140625</ele>
      </trkpt>
      <trkpt lat="44.52676" lon="1.06048">
        <ele>195.9765625</ele>
      </trkpt>
      <trkpt lat="44.5275" lon="1.05884">
        <ele>185.2578125</ele>
      </trkpt>
      <trkpt lat="44.52746" lon="1.05841">
        <ele>182.26953125</ele>
      </trkpt>
      <trkpt lat="44.52754" lon="1.05608">
        <ele>172.69140625</ele>
      </trkpt>
      <trkpt lat="44.52807" lon="1.05385">
        <ele>157.41015625</ele>
      </trkpt>
      <trkpt lat="44.52745" lon="1.05333">
        <ele>150.765625</ele>
      </trkpt>
      <trkpt lat="44.52872" lon="1.0506">
        <ele>131.34765625</ele>
      </trkpt>
      <trkpt lat="44.52943" lon="1.05062">
        <ele>118.41796875</ele>
      </trkpt>
      <trkpt lat="44.5308" lon="1.04905">
        <ele>105.71484375</ele>
      </trkpt>
      <trkpt lat="44.53069" lon="1.04872">
        <ele>105.78125</ele>
      </trkpt>
      <trkpt lat="44.53142" lon="1.04811">
        <ele>105</ele>
      </trkpt>
      <trkpt lat="44.53053" lon="1.04643">
        <ele>104</ele>
      </trkpt>
      <trkpt lat="44.52961" lon="1.04555">
        <ele>104</ele>
      </trkpt>
      <trkpt lat="44.52987" lon="1.04377">
        <ele>102.31640625</ele>
      </trkpt>
      <trkpt lat="44.53006" lon="1.04283">
        <ele>101.015625</ele>
      </trkpt>
      <trkpt lat="44.53123" lon="1.04169">
        <ele>106.1640625</ele>
      </trkpt>
      <trkpt lat="44.53109" lon="1.04159">
        <ele>105.88</ele>
        <time>2017-09-14T08:39:35Z</time>
      </trkpt>
      <trkpt lat="44.53123" lon="1.04139">
        <ele>107.81</ele>
        <time>2017-09-14T08:39:49Z</time>
      </trkpt>
      <trkpt lat="44.53136" lon="1.04125">
        <ele>107.32</ele>
        <time>2017-09-14T08:40:02Z</time>
      </trkpt>
      <trkpt lat="44.5315" lon="1.04109">
        <ele>107.81</ele>
        <time>2017-09-14T08:40:14Z</time>
      </trkpt>
      <trkpt lat="44.53164" lon="1.04088">
        <ele>108.77</ele>
        <time>2017-09-14T08:40:28Z</time>
      </trkpt>
      <trkpt lat="44.53171" lon="1.04074">
        <ele>108.77</ele>
        <time>2017-09-14T08:40:36Z</time>
      </trkpt>
      <trkpt lat="44.53173" lon="1.04064">
        <ele>109.25</ele>
        <time>2017-09-14T08:40:45Z</time>
      </trkpt>
      <trkpt lat="44.53179" lon="1.04057">
        <ele>109.73</ele>
        <time>2017-09-14T08:40:50Z</time>
      </trkpt>
      <trkpt lat="44.532" lon="1.04065">
        <ele>110.69</ele>
        <time>2017-09-14T08:41:07Z</time>
      </trkpt>
      <trkpt lat="44.53205" lon="1.04064">
        <ele>112.13</ele>
        <time>2017-09-14T08:41:12Z</time>
      </trkpt>
      <trkpt lat="44.53203" lon="1.04046">
        <ele>113.09</ele>
        <time>2017-09-14T08:41:22Z</time>
      </trkpt>
      <trkpt lat="44.53209" lon="1.04017">
        <ele>114.05</ele>
        <time>2017-09-14T08:41:39Z</time>
      </trkpt>
      <trkpt lat="44.5321" lon="1.04015">
        <ele>114.53</ele>
        <time>2017-09-14T08:41:41Z</time>
      </trkpt>
      <trkpt lat="44.53217" lon="1.04003">
        <ele>115.01</ele>
        <time>2017-09-14T08:41:48Z</time>
      </trkpt>
      <trkpt lat="44.5323" lon="1.03994">
        <ele>116.46</ele>
        <time>2017-09-14T08:41:56Z</time>
      </trkpt>
      <trkpt lat="44.53253" lon="1.03975">
        <ele>119.34</ele>
        <time>2017-09-14T08:42:11Z</time>
      </trkpt>
      <trkpt lat="44.53271" lon="1.03961">
        <ele>122.22</ele>
        <time>2017-09-14T08:42:25Z</time>
      </trkpt>
      <trkpt lat="44.53292" lon="1.03948">
        <ele>125.59</ele>
        <time>2017-09-14T08:42:42Z</time>
      </trkpt>
      <trkpt lat="44.53315" lon="1.03932">
        <ele>126.55</ele>
        <time>2017-09-14T08:42:59Z</time>
      </trkpt>
      <trkpt lat="44.53336" lon="1.03917">
        <ele>127.51</ele>
        <time>2017-09-14T08:43:12Z</time>
      </trkpt>
      <trkpt lat="44.53349" lon="1.03901">
        <ele>127.99</ele>
        <time>2017-09-14T08:43:25Z</time>
      </trkpt>
      <trkpt lat="44.53364" lon="1.03879">
        <ele>129.92</ele>
        <time>2017-09-14T08:43:39Z</time>
      </trkpt>
      <trkpt lat="44.53366" lon="1.03876">
        <ele>130.4</ele>
        <time>2017-09-14T08:43:41Z</time>
      </trkpt>
      <trkpt lat="44.53387" lon="1.03853">
        <ele>134.72</ele>
        <time>2017-09-14T08:43:55Z</time>
      </trkpt>
      <trkpt lat="44.53406" lon="1.0383">
        <ele>139.53</ele>
        <time>2017-09-14T08:44:07Z</time>
      </trkpt>
      <trkpt lat="44.53423" lon="1.03803">
        <ele>143.37</ele>
        <time>2017-09-14T08:44:20Z</time>
      </trkpt>
      <trkpt lat="44.53436" lon="1.03779">
        <ele>144.34</ele>
        <time>2017-09-14T08:44:33Z</time>
      </trkpt>
      <trkpt lat="44.53453" lon="1.03755">
        <ele>145.78</ele>
        <time>2017-09-14T08:44:48Z</time>
      </trkpt>
      <trkpt lat="44.53473" lon="1.03733">
        <ele>146.74</ele>
        <time>2017-09-14T08:45:04Z</time>
      </trkpt>
      <trkpt lat="44.53486" lon="1.03716">
        <ele>146.74</ele>
        <time>2017-09-14T08:45:16Z</time>
      </trkpt>
      <trkpt lat="44.5349" lon="1.03708">
        <ele>146.74</ele>
        <time>2017-09-14T08:45:21Z</time>
      </trkpt>
      <trkpt lat="44.53494" lon="1.03692">
        <ele>146.74</ele>
        <time>2017-09-14T08:45:32Z</time>
      </trkpt>
      <trkpt lat="44.53499" lon="1.03667">
        <ele>148.18</ele>
        <time>2017-09-14T08:45:45Z</time>
      </trkpt>
      <trkpt lat="44.53501" lon="1.03663">
        <ele>148.66</ele>
        <time>2017-09-14T08:45:47Z</time>
      </trkpt>
      <trkpt lat="44.53505" lon="1.03655">
        <ele>149.62</ele>
        <time>2017-09-14T08:45:51Z</time>
      </trkpt>
      <trkpt lat="44.53515" lon="1.03624">
        <ele>151.54</ele>
        <time>2017-09-14T08:46:07Z</time>
      </trkpt>
      <trkpt lat="44.53533" lon="1.03599">
        <ele>153.95</ele>
        <time>2017-09-14T08:46:23Z</time>
      </trkpt>
      <trkpt lat="44.5355" lon="1.03572">
        <ele>158.27</ele>
        <time>2017-09-14T08:46:38Z</time>
      </trkpt>
      <trkpt lat="44.53574" lon="1.03552">
        <ele>162.6</ele>
        <time>2017-09-14T08:46:53Z</time>
      </trkpt>
      <trkpt lat="44.53587" lon="1.03537">
        <ele>164.04</ele>
        <time>2017-09-14T08:47:04Z</time>
      </trkpt>
      <trkpt lat="44.53602" lon="1.03513">
        <ele>165.96</ele>
        <time>2017-09-14T08:47:17Z</time>
      </trkpt>
      <trkpt lat="44.53621" lon="1.03489">
        <ele>169.33</ele>
        <time>2017-09-14T08:47:31Z</time>
      </trkpt>
      <trkpt lat="44.53631" lon="1.0348">
        <ele>170.29</ele>
        <time>2017-09-14T08:47:38Z</time>
      </trkpt>
      <trkpt lat="44.53643" lon="1.03469">
        <ele>172.69</ele>
        <time>2017-09-14T08:47:49Z</time>
      </trkpt>
      <trkpt lat="44.53663" lon="1.03451">
        <ele>175.58</ele>
        <time>2017-09-14T08:48:03Z</time>
      </trkpt>
      <trkpt lat="44.53687" lon="1.03423">
        <ele>175.58</ele>
        <time>2017-09-14T08:48:20Z</time>
      </trkpt>
      <trkpt lat="44.53689" lon="1.0342">
        <ele>176.06</ele>
        <time>2017-09-14T08:48:22Z</time>
      </trkpt>
      <trkpt lat="44.53694" lon="1.0341">
        <ele>176.06</ele>
        <time>2017-09-14T08:48:27Z</time>
      </trkpt>
      <trkpt lat="44.53705" lon="1.03379">
        <ele>176.06</ele>
        <time>2017-09-14T08:48:42Z</time>
      </trkpt>
      <trkpt lat="44.53718" lon="1.0335">
        <ele>176.54</ele>
        <time>2017-09-14T08:48:57Z</time>
      </trkpt>
      <trkpt lat="44.5373" lon="1.03322">
        <ele>176.06</ele>
        <time>2017-09-14T08:49:11Z</time>
      </trkpt>
      <trkpt lat="44.53735" lon="1.03296">
        <ele>178.46</ele>
        <time>2017-09-14T08:49:25Z</time>
      </trkpt>
      <trkpt lat="44.53735" lon="1.03291">
        <ele>178.94</ele>
        <time>2017-09-14T08:49:28Z</time>
      </trkpt>
      <trkpt lat="44.53739" lon="1.03281">
        <ele>180.38</ele>
        <time>2017-09-14T08:49:33Z</time>
      </trkpt>
      <trkpt lat="44.53749" lon="1.03247">
        <ele>180.87</ele>
        <time>2017-09-14T08:49:47Z</time>
      </trkpt>
      <trkpt lat="44.53756" lon="1.03206">
        <ele>181.35</ele>
        <time>2017-09-14T08:49:57Z</time>
      </trkpt>
      <trkpt lat="44.53768" lon="1.03157">
        <ele>181.35</ele>
        <time>2017-09-14T08:50:08Z</time>
      </trkpt>
      <trkpt lat="44.53768" lon="1.0311">
        <ele>180.87</ele>
        <time>2017-09-14T08:50:19Z</time>
      </trkpt>
      <trkpt lat="44.53734" lon="1.03085">
        <ele>179.9</ele>
        <time>2017-09-14T08:50:31Z</time>
      </trkpt>
      <trkpt lat="44.53713" lon="1.03077">
        <ele>180.38</ele>
        <time>2017-09-14T08:50:40Z</time>
      </trkpt>
      <trkpt lat="44.537" lon="1.03075">
        <ele>178.94</ele>
        <time>2017-09-14T08:50:52Z</time>
      </trkpt>
      <trkpt lat="44.53677" lon="1.03072">
        <ele>178.46</ele>
        <time>2017-09-14T08:51:07Z</time>
      </trkpt>
      <trkpt lat="44.53653" lon="1.03066">
        <ele>173.66</ele>
        <time>2017-09-14T08:51:20Z</time>
      </trkpt>
      <trkpt lat="44.53623" lon="1.03061">
        <ele>175.1</ele>
        <time>2017-09-14T08:51:36Z</time>
      </trkpt>
      <trkpt lat="44.53608" lon="1.03075">
        <ele>177.5</ele>
        <time>2017-09-14T08:51:47Z</time>
      </trkpt>
      <trkpt lat="44.53607" lon="1.03075">
        <ele>177.98</ele>
        <time>2017-09-14T08:51:48Z</time>
      </trkpt>
      <trkpt lat="44.53605" lon="1.03072">
        <ele>178.46</ele>
        <time>2017-09-14T08:51:50Z</time>
      </trkpt>
      <trkpt lat="44.53605" lon="1.03071">
        <ele>178.46</ele>
        <time>2017-09-14T08:51:51Z</time>
      </trkpt>
      <trkpt lat="44.53605" lon="1.03068">
        <ele>178.46</ele>
        <time>2017-09-14T08:51:52Z</time>
      </trkpt>
      <trkpt lat="44.53606" lon="1.03067">
        <ele>178.94</ele>
        <time>2017-09-14T08:51:53Z</time>
      </trkpt>
      <trkpt lat="44.53606" lon="1.03065">
        <ele>178.94</ele>
        <time>2017-09-14T08:51:54Z</time>
      </trkpt>
      <trkpt lat="44.53607" lon="1.03063">
        <ele>179.42</ele>
        <time>2017-09-14T08:51:55Z</time>
      </trkpt>
      <trkpt lat="44.53607" lon="1.03061">
        <ele>179.42</ele>
        <time>2017-09-14T08:51:56Z</time>
      </trkpt>
      <trkpt lat="44.53608" lon="1.0306">
        <ele>179.9</ele>
        <time>2017-09-14T08:51:57Z</time>
      </trkpt>
      <trkpt lat="44.5361" lon="1.0303">
        <ele>181.83</ele>
        <time>2017-09-14T08:52:11Z</time>
      </trkpt>
      <trkpt lat="44.5361" lon="1.03024">
        <ele>181.83</ele>
        <time>2017-09-14T08:52:27Z</time>
      </trkpt>
      <trkpt lat="44.5361" lon="1.03021">
        <ele>182.79</ele>
        <time>2017-09-14T08:52:49Z</time>
      </trkpt>
      <trkpt lat="44.53611" lon="1.03021">
        <ele>184.71</ele>
        <time>2017-09-14T08:53:08Z</time>
      </trkpt>
      <trkpt lat="44.53613" lon="1.03021">
        <ele>184.71</ele>
        <time>2017-09-14T08:53:36Z</time>
      </trkpt>
      <trkpt lat="44.53617" lon="1.03008">
        <ele>187.11</ele>
        <time>2017-09-14T08:53:50Z</time>
      </trkpt>
      <trkpt lat="44.53623" lon="1.02987">
        <ele>190.48</ele>
        <time>2017-09-14T08:54:06Z</time>
      </trkpt>
      <trkpt lat="44.53626" lon="1.02971">
        <ele>194.32</ele>
        <time>2017-09-14T08:54:19Z</time>
      </trkpt>
      <trkpt lat="44.5363" lon="1.02951">
        <ele>196.73</ele>
        <time>2017-09-14T08:54:33Z</time>
      </trkpt>
      <trkpt lat="44.53631" lon="1.02936">
        <ele>195.77</ele>
        <time>2017-09-14T08:54:46Z</time>
      </trkpt>
      <trkpt lat="44.53631" lon="1.0292">
        <ele>199.61</ele>
        <time>2017-09-14T08:55:00Z</time>
      </trkpt>
      <trkpt lat="44.53631" lon="1.02902">
        <ele>202.98</ele>
        <time>2017-09-14T08:55:14Z</time>
      </trkpt>
      <trkpt lat="44.53631" lon="1.029">
        <ele>203.46</ele>
        <time>2017-09-14T08:55:15Z</time>
      </trkpt>
      <trkpt lat="44.53633" lon="1.02882">
        <ele>205.38</ele>
        <time>2017-09-14T08:55:29Z</time>
      </trkpt>
      <trkpt lat="44.53627" lon="1.02871">
        <ele>208.26</ele>
        <time>2017-09-14T08:55:43Z</time>
      </trkpt>
      <trkpt lat="44.5362" lon="1.02861">
        <ele>208.74</ele>
        <time>2017-09-14T08:55:56Z</time>
      </trkpt>
      <trkpt lat="44.53618" lon="1.02855">
        <ele>207.78</ele>
        <time>2017-09-14T08:56:13Z</time>
      </trkpt>
      <trkpt lat="44.53617" lon="1.02853">
        <ele>204.42</ele>
        <time>2017-09-14T08:56:40Z</time>
      </trkpt>
      <trkpt lat="44.53613" lon="1.0284">
        <ele>202.49</ele>
        <time>2017-09-14T08:57:12Z</time>
      </trkpt>
      <trkpt lat="44.53609" lon="1.02818">
        <ele>201.05</ele>
        <time>2017-09-14T08:57:27Z</time>
      </trkpt>
      <trkpt lat="44.53606" lon="1.02808">
        <ele>202.01</ele>
        <time>2017-09-14T08:57:36Z</time>
      </trkpt>
      <trkpt lat="44.53603" lon="1.02788">
        <ele>202.49</ele>
        <time>2017-09-14T08:57:49Z</time>
      </trkpt>
      <trkpt lat="44.536" lon="1.02769">
        <ele>207.78</ele>
        <time>2017-09-14T08:58:01Z</time>
      </trkpt>
      <trkpt lat="44.53601" lon="1.02759">
        <ele>213.55</ele>
        <time>2017-09-14T08:58:15Z</time>
      </trkpt>
      <trkpt lat="44.53601" lon="1.02753">
        <ele>219.8</ele>
        <time>2017-09-14T08:58:27Z</time>
      </trkpt>
      <trkpt lat="44.53601" lon="1.02751">
        <ele>218.84</ele>
        <time>2017-09-14T09:02:48Z</time>
      </trkpt>
      <trkpt lat="44.53602" lon="1.02738">
        <ele>222.2</ele>
        <time>2017-09-14T09:03:06Z</time>
      </trkpt>
      <trkpt lat="44.53603" lon="1.02721">
        <ele>223.64</ele>
        <time>2017-09-14T09:03:18Z</time>
      </trkpt>
      <trkpt lat="44.53602" lon="1.02702">
        <ele>222.2</ele>
        <time>2017-09-14T09:03:31Z</time>
      </trkpt>
      <trkpt lat="44.53605" lon="1.02675">
        <ele>223.64</ele>
        <time>2017-09-14T09:03:44Z</time>
      </trkpt>
      <trkpt lat="44.53605" lon="1.02673">
        <ele>223.64</ele>
        <time>2017-09-14T09:03:45Z</time>
      </trkpt>
      <trkpt lat="44.53606" lon="1.02652">
        <ele>225.09</ele>
        <time>2017-09-14T09:03:56Z</time>
      </trkpt>
      <trkpt lat="44.53609" lon="1.02637">
        <ele>225.09</ele>
        <time>2017-09-14T09:04:03Z</time>
      </trkpt>
      <trkpt lat="44.53608" lon="1.02609">
        <ele>225.57</ele>
        <time>2017-09-14T09:04:15Z</time>
      </trkpt>
      <trkpt lat="44.53617" lon="1.02563">
        <ele>225.57</ele>
        <time>2017-09-14T09:04:28Z</time>
      </trkpt>
      <trkpt lat="44.5362" lon="1.02527">
        <ele>226.05</ele>
        <time>2017-09-14T09:04:33Z</time>
      </trkpt>
      <trkpt lat="44.53615" lon="1.02496">
        <ele>227.01</ele>
        <time>2017-09-14T09:04:37Z</time>
      </trkpt>
      <trkpt lat="44.53599" lon="1.02385">
        <ele>229.89</ele>
        <time>2017-09-14T09:04:52Z</time>
      </trkpt>
      <trkpt lat="44.53593" lon="1.02342">
        <ele>229.89</ele>
        <time>2017-09-14T09:05:02Z</time>
      </trkpt>
      <trkpt lat="44.53584" lon="1.02304">
        <ele>228.93</ele>
        <time>2017-09-14T09:05:19Z</time>
      </trkpt>
      <trkpt lat="44.53573" lon="1.02269">
        <ele>227.97</ele>
        <time>2017-09-14T09:05:37Z</time>
      </trkpt>
      <trkpt lat="44.53561" lon="1.02247">
        <ele>227.01</ele>
        <time>2017-09-14T09:05:52Z</time>
      </trkpt>
      <trkpt lat="44.5355" lon="1.02239">
        <ele>225.09</ele>
        <time>2017-09-14T09:06:01Z</time>
      </trkpt>
      <trkpt lat="44.53529" lon="1.02225">
        <ele>221.24</ele>
        <time>2017-09-14T09:06:16Z</time>
      </trkpt>
      <trkpt lat="44.53513" lon="1.02213">
        <ele>220.28</ele>
        <time>2017-09-14T09:06:29Z</time>
      </trkpt>
      <trkpt lat="44.53496" lon="1.02195">
        <ele>219.32</ele>
        <time>2017-09-14T09:06:45Z</time>
      </trkpt>
      <trkpt lat="44.53479" lon="1.02171">
        <ele>219.32</ele>
        <time>2017-09-14T09:07:01Z</time>
      </trkpt>
      <trkpt lat="44.53463" lon="1.02148">
        <ele>217.4</ele>
        <time>2017-09-14T09:07:15Z</time>
      </trkpt>
      <trkpt lat="44.53459" lon="1.02141">
        <ele>217.4</ele>
        <time>2017-09-14T09:07:19Z</time>
      </trkpt>
      <trkpt lat="44.53438" lon="1.02114">
        <ele>213.07</ele>
        <time>2017-09-14T09:07:37Z</time>
      </trkpt>
      <trkpt lat="44.53425" lon="1.0209">
        <ele>209.7</ele>
        <time>2017-09-14T09:07:53Z</time>
      </trkpt>
      <trkpt lat="44.53424" lon="1.02088">
        <ele>210.19</ele>
        <time>2017-09-14T09:07:54Z</time>
      </trkpt>
      <trkpt lat="44.53412" lon="1.02051">
        <ele>211.15</ele>
        <time>2017-09-14T09:08:10Z</time>
      </trkpt>
      <trkpt lat="44.53412" lon="1.02032">
        <ele>209.7</ele>
        <time>2017-09-14T09:08:20Z</time>
      </trkpt>
      <trkpt lat="44.53412" lon="1.02017">
        <ele>208.74</ele>
        <time>2017-09-14T09:08:27Z</time>
      </trkpt>
      <trkpt lat="44.534" lon="1.01998">
        <ele>207.78</ele>
        <time>2017-09-14T09:08:41Z</time>
      </trkpt>
      <trkpt lat="44.53398" lon="1.01997">
        <ele>207.78</ele>
        <time>2017-09-14T09:08:43Z</time>
      </trkpt>
      <trkpt lat="44.5339" lon="1.01988">
        <ele>206.34</ele>
        <time>2017-09-14T09:08:50Z</time>
      </trkpt>
      <trkpt lat="44.53386" lon="1.01976">
        <ele>206.82</ele>
        <time>2017-09-14T09:08:54Z</time>
      </trkpt>
      <trkpt lat="44.53385" lon="1.01965">
        <ele>208.26</ele>
        <time>2017-09-14T09:08:59Z</time>
      </trkpt>
      <trkpt lat="44.53381" lon="1.01935">
        <ele>206.34</ele>
        <time>2017-09-14T09:09:13Z</time>
      </trkpt>
      <trkpt lat="44.53377" lon="1.01913">
        <ele>203.46</ele>
        <time>2017-09-14T09:09:25Z</time>
      </trkpt>
      <trkpt lat="44.53372" lon="1.01883">
        <ele>203.94</ele>
        <time>2017-09-14T09:09:38Z</time>
      </trkpt>
      <trkpt lat="44.53369" lon="1.01845">
        <ele>204.42</ele>
        <time>2017-09-14T09:09:54Z</time>
      </trkpt>
      <trkpt lat="44.53367" lon="1.01813">
        <ele>202.49</ele>
        <time>2017-09-14T09:10:09Z</time>
      </trkpt>
      <trkpt lat="44.53365" lon="1.01808">
        <ele>201.53</ele>
        <time>2017-09-14T09:10:12Z</time>
      </trkpt>
      <trkpt lat="44.53363" lon="1.0178">
        <ele>200.09</ele>
        <time>2017-09-14T09:10:26Z</time>
      </trkpt>
      <trkpt lat="44.53361" lon="1.01751">
        <ele>199.13</ele>
        <time>2017-09-14T09:10:39Z</time>
      </trkpt>
      <trkpt lat="44.53358" lon="1.0172">
        <ele>194.8</ele>
        <time>2017-09-14T09:10:52Z</time>
      </trkpt>
      <trkpt lat="44.53358" lon="1.01718">
        <ele>194.8</ele>
        <time>2017-09-14T09:10:53Z</time>
      </trkpt>
      <trkpt lat="44.53357" lon="1.01701">
        <ele>193.84</ele>
        <time>2017-09-14T09:11:01Z</time>
      </trkpt>
      <trkpt lat="44.53362" lon="1.01668">
        <ele>192.4</ele>
        <time>2017-09-14T09:11:16Z</time>
      </trkpt>
      <trkpt lat="44.53358" lon="1.01634">
        <ele>188.56</ele>
        <time>2017-09-14T09:11:32Z</time>
      </trkpt>
      <trkpt lat="44.53342" lon="1.0161">
        <ele>185.19</ele>
        <time>2017-09-14T09:11:46Z</time>
      </trkpt>
      <trkpt lat="44.5333" lon="1.0159">
        <ele>181.83</ele>
        <time>2017-09-14T09:11:59Z</time>
      </trkpt>
      <trkpt lat="44.53322" lon="1.0156">
        <ele>181.35</ele>
        <time>2017-09-14T09:12:12Z</time>
      </trkpt>
      <trkpt lat="44.53318" lon="1.01545">
        <ele>180.87</ele>
        <time>2017-09-14T09:12:19Z</time>
      </trkpt>
      <trkpt lat="44.53318" lon="1.01518">
        <ele>178.46</ele>
        <time>2017-09-14T09:12:31Z</time>
      </trkpt>
      <trkpt lat="44.53331" lon="1.01501">
        <ele>176.06</ele>
        <time>2017-09-14T09:12:46Z</time>
      </trkpt>
      <trkpt lat="44.53343" lon="1.01491">
        <ele>175.58</ele>
        <time>2017-09-14T09:12:55Z</time>
      </trkpt>
      <trkpt lat="44.53346" lon="1.01485">
        <ele>175.1</ele>
        <time>2017-09-14T09:12:59Z</time>
      </trkpt>
      <trkpt lat="44.53347" lon="1.01481">
        <ele>174.14</ele>
        <time>2017-09-14T09:13:01Z</time>
      </trkpt>
      <trkpt lat="44.53347" lon="1.01464">
        <ele>171.73</ele>
        <time>2017-09-14T09:13:08Z</time>
      </trkpt>
      <trkpt lat="44.53348" lon="1.01453">
        <ele>172.69</ele>
        <time>2017-09-14T09:13:24Z</time>
      </trkpt>
      <trkpt lat="44.5335" lon="1.01455">
        <ele>178.46</ele>
        <time>2017-09-14T09:13:58Z</time>
      </trkpt>
      <trkpt lat="44.5335" lon="1.01459">
        <ele>184.71</ele>
        <time>2017-09-14T09:14:21Z</time>
      </trkpt>
      <trkpt lat="44.53353" lon="1.0146">
        <ele>193.36</ele>
        <time>2017-09-14T09:14:52Z</time>
      </trkpt>
      <trkpt lat="44.53355" lon="1.01462">
        <ele>191.44</ele>
        <time>2017-09-14T09:15:26Z</time>
      </trkpt>
      <trkpt lat="44.53353" lon="1.01454">
        <ele>189.04</ele>
        <time>2017-09-14T09:16:02Z</time>
      </trkpt>
      <trkpt lat="44.53352" lon="1.01451">
        <ele>186.15</ele>
        <time>2017-09-14T09:16:17Z</time>
      </trkpt>
      <trkpt lat="44.53356" lon="1.01421">
        <ele>179.9</ele>
        <time>2017-09-14T09:16:33Z</time>
      </trkpt>
      <trkpt lat="44.53361" lon="1.01393">
        <ele>174.62</ele>
        <time>2017-09-14T09:16:47Z</time>
      </trkpt>
      <trkpt lat="44.53361" lon="1.01383">
        <ele>174.14</ele>
        <time>2017-09-14T09:16:52Z</time>
      </trkpt>
      <trkpt lat="44.53362" lon="1.01376">
        <ele>173.66</ele>
        <time>2017-09-14T09:16:56Z</time>
      </trkpt>
      <trkpt lat="44.53358" lon="1.01358">
        <ele>171.73</ele>
        <time>2017-09-14T09:17:05Z</time>
      </trkpt>
      <trkpt lat="44.53336" lon="1.01344">
        <ele>169.33</ele>
        <time>2017-09-14T09:17:19Z</time>
      </trkpt>
      <trkpt lat="44.53335" lon="1.01336">
        <ele>167.89</ele>
        <time>2017-09-14T09:17:26Z</time>
      </trkpt>
      <trkpt lat="44.53354" lon="1.01344">
        <ele>167.89</ele>
        <time>2017-09-14T09:17:41Z</time>
      </trkpt>
      <trkpt lat="44.53366" lon="1.01357">
        <ele>166.45</ele>
        <time>2017-09-14T09:17:53Z</time>
      </trkpt>
      <trkpt lat="44.53373" lon="1.01375">
        <ele>163.56</ele>
        <time>2017-09-14T09:18:07Z</time>
      </trkpt>
      <trkpt lat="44.53373" lon="1.01378">
        <ele>163.56</ele>
        <time>2017-09-14T09:18:08Z</time>
      </trkpt>
      <trkpt lat="44.53379" lon="1.01407">
        <ele>161.64</ele>
        <time>2017-09-14T09:18:23Z</time>
      </trkpt>
      <trkpt lat="44.53389" lon="1.01437">
        <ele>159.72</ele>
        <time>2017-09-14T09:18:38Z</time>
      </trkpt>
      <trkpt lat="44.53401" lon="1.01465">
        <ele>158.27</ele>
        <time>2017-09-14T09:18:53Z</time>
      </trkpt>
      <trkpt lat="44.53406" lon="1.01477">
        <ele>156.35</ele>
        <time>2017-09-14T09:19:00Z</time>
      </trkpt>
      <trkpt lat="44.53417" lon="1.01503">
        <ele>152.03</ele>
        <time>2017-09-14T09:19:16Z</time>
      </trkpt>
      <trkpt lat="44.5343" lon="1.0152">
        <ele>149.62</ele>
        <time>2017-09-14T09:19:29Z</time>
      </trkpt>
      <trkpt lat="44.53448" lon="1.01526">
        <ele>144.82</ele>
        <time>2017-09-14T09:19:42Z</time>
      </trkpt>
      <trkpt lat="44.53474" lon="1.01519">
        <ele>144.34</ele>
        <time>2017-09-14T09:19:58Z</time>
      </trkpt>
      <trkpt lat="44.53498" lon="1.01506">
        <ele>145.78</ele>
        <time>2017-09-14T09:20:14Z</time>
      </trkpt>
      <trkpt lat="44.53521" lon="1.01502">
        <ele>147.22</ele>
        <time>2017-09-14T09:20:29Z</time>
      </trkpt>
      <trkpt lat="44.53538" lon="1.01513">
        <ele>147.7</ele>
        <time>2017-09-14T09:20:42Z</time>
      </trkpt>
      <trkpt lat="44.5354" lon="1.01524">
        <ele>148.18</ele>
        <time>2017-09-14T09:20:49Z</time>
      </trkpt>
      <trkpt lat="44.53536" lon="1.01533">
        <ele>149.14</ele>
        <time>2017-09-14T09:20:57Z</time>
      </trkpt>
      <trkpt lat="44.53528" lon="1.01559">
        <ele>152.03</ele>
        <time>2017-09-14T09:21:13Z</time>
      </trkpt>
      <trkpt lat="44.53528" lon="1.01561">
        <ele>152.03</ele>
        <time>2017-09-14T09:21:14Z</time>
      </trkpt>
      <trkpt lat="44.53534" lon="1.0159">
        <ele>154.91</ele>
        <time>2017-09-14T09:21:28Z</time>
      </trkpt>
      <trkpt lat="44.53538" lon="1.01621">
        <ele>157.31</ele>
        <time>2017-09-14T09:21:43Z</time>
      </trkpt>
      <trkpt lat="44.53547" lon="1.01651">
        <ele>158.75</ele>
        <time>2017-09-14T09:21:58Z</time>
      </trkpt>
      <trkpt lat="44.53555" lon="1.01668">
        <ele>157.79</ele>
        <time>2017-09-14T09:22:11Z</time>
      </trkpt>
      <trkpt lat="44.53561" lon="1.0168">
        <ele>154.43</ele>
        <time>2017-09-14T09:22:20Z</time>
      </trkpt>
      <trkpt lat="44.53574" lon="1.01698">
        <ele>152.99</ele>
        <time>2017-09-14T09:22:34Z</time>
      </trkpt>
      <trkpt lat="44.53593" lon="1.01672">
        <ele>147.22</ele>
        <time>2017-09-14T09:22:51Z</time>
      </trkpt>
      <trkpt lat="44.53606" lon="1.01646">
        <ele>148.66</ele>
        <time>2017-09-14T09:23:06Z</time>
      </trkpt>
      <trkpt lat="44.53618" lon="1.01617">
        <ele>147.7</ele>
        <time>2017-09-14T09:23:23Z</time>
      </trkpt>
      <trkpt lat="44.53624" lon="1.01598">
        <ele>147.22</ele>
        <time>2017-09-14T09:23:36Z</time>
      </trkpt>
      <trkpt lat="44.53638" lon="1.01576">
        <ele>142.89</ele>
        <time>2017-09-14T09:23:50Z</time>
      </trkpt>
      <trkpt lat="44.53642" lon="1.0157">
        <ele>142.41</ele>
        <time>2017-09-14T09:23:54Z</time>
      </trkpt>
      <trkpt lat="44.53652" lon="1.01551">
        <ele>140.97</ele>
        <time>2017-09-14T09:24:07Z</time>
      </trkpt>
      <trkpt lat="44.53666" lon="1.01546">
        <ele>136.34765625</ele>
      </trkpt>
      <trkpt lat="44.53784" lon="1.01398">
        <ele>150.5625</ele>
      </trkpt>
      <trkpt lat="44.53613" lon="1.01556">
        <ele>141.53125</ele>
      </trkpt>
      <trkpt lat="44.53554" lon="1.01601">
        <ele>149.74609375</ele>
      </trkpt>
      <trkpt lat="44.53527" lon="1.01514">
        <ele>149.77734375</ele>
      </trkpt>
      <trkpt lat="44.53449" lon="1.01503">
        <ele>150.00390625</ele>
      </trkpt>
      <trkpt lat="44.53345" lon="1.01359">
        <ele>173.4609375</ele>
      </trkpt>
      <trkpt lat="44.53337" lon="1.01489">
        <ele>178.1875</ele>
      </trkpt>
      <trkpt lat="44.53337" lon="1.01489">
        <ele>178.1875</ele>
      </trkpt>
      <trkpt lat="44.53353" lon="1.01725">
        <ele>198.06640625</ele>
      </trkpt>
      <trkpt lat="44.53368" lon="1.02016">
        <ele>209.71484375</ele>
      </trkpt>
      <trkpt lat="44.53318" lon="1.02237">
        <ele>205.265625</ele>
      </trkpt>
      <trkpt lat="44.53267" lon="1.02366">
        <ele>195.109375</ele>
      </trkpt>
      <trkpt lat="44.53354" lon="1.02551">
        <ele>194.7421875</ele>
      </trkpt>
      <trkpt lat="44.53341" lon="1.02628">
        <ele>184.3359375</ele>
      </trkpt>
      <trkpt lat="44.53261" lon="1.02581">
        <ele>179.15625</ele>
      </trkpt>
      <trkpt lat="44.53153" lon="1.02618">
        <ele>159.828125</ele>
      </trkpt>
      <trkpt lat="44.53094" lon="1.02625">
        <ele>148.4140625</ele>
      </trkpt>
      <trkpt lat="44.53022" lon="1.02553">
        <ele>139.8203125</ele>
      </trkpt>
      <trkpt lat="44.53003" lon="1.0258">
        <ele>135.53515625</ele>
      </trkpt>
      <trkpt lat="44.53007" lon="1.0263">
        <ele>135.7421875</ele>
      </trkpt>
      <trkpt lat="44.52838" lon="1.02656">
        <ele>120.84765625</ele>
      </trkpt>
      <trkpt lat="44.52749" lon="1.02724">
        <ele>126.58984375</ele>
      </trkpt>
      <trkpt lat="44.52712" lon="1.02704">
        <ele>119.49609375</ele>
      </trkpt>
      <trkpt lat="44.52674" lon="1.027">
        <ele>115.328125</ele>
      </trkpt>
      <trkpt lat="44.52646" lon="1.02721">
        <ele>115.12109375</ele>
      </trkpt>
      <trkpt lat="44.52616" lon="1.02577">
        <ele>117.1015625</ele>
      </trkpt>
      <trkpt lat="44.52516" lon="1.02674">
        <ele>111.55078125</ele>
      </trkpt>
      <trkpt lat="44.52459" lon="1.02732">
        <ele>108.87890625</ele>
      </trkpt>
      <trkpt lat="44.52384" lon="1.02767">
        <ele>108.6328125</ele>
      </trkpt>
      <trkpt lat="44.52323" lon="1.02814">
        <ele>105.73046875</ele>
      </trkpt>
      <trkpt lat="44.52241" lon="1.02814">
        <ele>101.875</ele>
      </trkpt>
      <trkpt lat="44.52178" lon="1.0289">
        <ele>99.54296875</ele>
      </trkpt>
      <trkpt lat="44.52179" lon="1.03114">
        <ele>103.2265625</ele>
      </trkpt>
      <trkpt lat="44.52109" lon="1.03116">
        <ele>93.57421875</ele>
      </trkpt>
      <trkpt lat="44.52002" lon="1.03101">
        <ele>92.39453125</ele>
      </trkpt>
      <trkpt lat="44.51941" lon="1.0309">
        <ele>95.29296875</ele>
      </trkpt>
      <trkpt lat="44.51921" lon="1.03227">
        <ele>96.19921875</ele>
      </trkpt>
      <trkpt lat="44.51817" lon="1.03216">
        <ele>104.828125</ele>
      </trkpt>
      <trkpt lat="44.519" lon="1.03324">
        <ele>97.8984375</ele>
      </trkpt>
      <trkpt lat="44.51886" lon="1.03563">
        <ele>99.30859375</ele>
      </trkpt>
      <trkpt lat="44.51922" lon="1.03805">
        <ele>104.78515625</ele>
      </trkpt>
      <trkpt lat="44.52009" lon="1.03959">
        <ele>102.8359375</ele>
      </trkpt>
      <trkpt lat="44.51848" lon="1.03879">
        <ele>123.08984375</ele>
      </trkpt>
      <trkpt lat="44.51662" lon="1.03836">
        <ele>140.890625</ele>
      </trkpt>
      <trkpt lat="44.51372" lon="1.03978">
        <ele>174.8515625</ele>
      </trkpt>
      <trkpt lat="44.51288" lon="1.03949">
        <ele>192.26171875</ele>
      </trkpt>
      <trkpt lat="44.51188" lon="1.03752">
        <ele>209.25</ele>
      </trkpt>
      <trkpt lat="44.51113" lon="1.03878">
        <ele>210.53125</ele>
      </trkpt>
      <trkpt lat="44.51089" lon="1.04053">
        <ele>209.828125</ele>
      </trkpt>
      <trkpt lat="44.50916" lon="1.04149">
        <ele>194.48046875</ele>
      </trkpt>
      <trkpt lat="44.50803" lon="1.04256">
        <ele>183.0390625</ele>
      </trkpt>
      <trkpt lat="44.50641" lon="1.0436">
        <ele>168.96875</ele>
      </trkpt>
      <trkpt lat="44.50593" lon="1.04336">
        <ele>161.03515625</ele>
      </trkpt>
      <trkpt lat="44.50526" lon="1.04389">
        <ele>150.5</ele>
      </trkpt>
      <trkpt lat="44.50454" lon="1.04252">
        <ele>137.5390625</ele>
      </trkpt>
      <trkpt lat="44.50299" lon="1.04145">
        <ele>126.47265625</ele>
      </trkpt>
      <trkpt lat="44.50137" lon="1.04135">
        <ele>115.37890625</ele>
      </trkpt>
      <trkpt lat="44.50026" lon="1.04353">
        <ele>106.890625</ele>
      </trkpt>
      <trkpt lat="44.49947" lon="1.04585">
        <ele>94.296875</ele>
      </trkpt>
      <trkpt lat="44.49883" lon="1.04768">
        <ele>96.6171875</ele>
      </trkpt>
      <trkpt lat="44.49799" lon="1.04837">
        <ele>80.25</ele>
      </trkpt>
      <trkpt lat="44.49609" lon="1.04893">
        <ele>72.89453125</ele>
      </trkpt>
      <trkpt lat="44.49627" lon="1.05224">
        <ele>77.015625</ele>
      </trkpt>
      <trkpt lat="44.49644" lon="1.05365">
        <ele>78</ele>
      </trkpt>
      <trkpt lat="44.49684" lon="1.05456">
        <ele>78.0859375</ele>
      </trkpt>
      <trkpt lat="44.4959" lon="1.05461">
        <ele>78</ele>
      </trkpt>
      <trkpt lat="44.49559" lon="1.05618">
        <ele>78.2421875</ele>
      </trkpt>
      <trkpt lat="44.49207" lon="1.05693">
        <ele>78.33203125</ele>
      </trkpt>
      <trkpt lat="44.49009" lon="1.05741">
        <ele>77.50390625</ele>
      </trkpt>
      <trkpt lat="44.48723" lon="1.05669">
        <ele>76.5859375</ele>
      </trkpt>
      <trkpt lat="44.48479" lon="1.05579">
        <ele>77.2421875</ele>
      </trkpt>
      <trkpt lat="44.48256" lon="1.0543">
        <ele>76.6171875</ele>
      </trkpt>
      <trkpt lat="44.48019" lon="1.05265">
        <ele>77.546875</ele>
      </trkpt>
      <trkpt lat="44.47809" lon="1.05471">
        <ele>91.2109375</ele>
      </trkpt>
    </trkseg>
  </trk>
</gpx>